Wetterdaten: Sonntag, 23.11.2014
Datum Zeit Temp. Aussen +5cm Feuchte Auss Luftdruck Regen Sonnenschein Regendauer Solar Windben
23.11.2014 00:00 8,3 C 6,7 C 93 % 1018,6 hPa 0,0 l/m 0 min 0 min 0 W/m 14,6 km/h (3 Bft)
23.11.2014 00:02 8,3 C 6,7 C 93 % 1018,6 hPa 0,0 l/m 0 min 0 min 0 W/m 20,9 km/h (4 Bft)
23.11.2014 00:05 8,3 C 6,7 C 93 % 1018,6 hPa 0,0 l/m 0 min 0 min 0 W/m 12,6 km/h (3 Bft)
23.11.2014 00:06 8,3 C 6,7 C 93 % 1018,6 hPa 0,0 l/m 0 min 0 min 0 W/m 10,5 km/h (2 Bft)
23.11.2014 00:08 8,3 C 6,7 C 93 % 1018,5 hPa 0,0 l/m 0 min 0 min 0 W/m 16,7 km/h (3 Bft)
23.11.2014 00:10 8,3 C 6,7 C 93 % 1018,6 hPa 0,0 l/m 0 min 0 min 0 W/m 14,6 km/h (3 Bft)
23.11.2014 00:12 8,3 C 6,7 C 93 % 1018,6 hPa 0,0 l/m 0 min 0 min 0 W/m 14,6 km/h (3 Bft)
23.11.2014 00:14 8,3 C 6,7 C 93 % 1018,6 hPa 0,0 l/m 0 min 0 min 0 W/m 16,7 km/h (3 Bft)
23.11.2014 00:16 8,3 C 6,7 C 93 % 1018,6 hPa 0,0 l/m 0 min 0 min 0 W/m 14,6 km/h (3 Bft)
23.11.2014 00:18 8,3 C 6,7 C 93 % 1018,5 hPa 0,0 l/m 0 min 0 min 0 W/m 12,6 km/h (3 Bft)
23.11.2014 00:20 8,3 C 6,7 C 93 % 1018,6 hPa 0,0 l/m 0 min 0 min 0 W/m 18,8 km/h (3 Bft)
23.11.2014 00:22 8,3 C 6,7 C 93 % 1018,5 hPa 0,0 l/m 0 min 0 min 0 W/m 14,6 km/h (3 Bft)
23.11.2014 00:24 8,3 C 6,7 C 93 % 1018,6 hPa 0,0 l/m 0 min 0 min 0 W/m 16,7 km/h (3 Bft)
23.11.2014 00:26 8,3 C 6,7 C 93 % 1018,6 hPa 0,0 l/m 0 min 0 min 0 W/m 12,6 km/h (3 Bft)
23.11.2014 00:28 8,3 C 6,7 C 93 % 1018,6 hPa 0,0 l/m 0 min 0 min 0 W/m 16,7 km/h (3 Bft)
23.11.2014 00:30 8,3 C 6,7 C 93 % 1018,6 hPa 0,0 l/m 0 min 0 min 0 W/m 14,6 km/h (3 Bft)
23.11.2014 00:32 8,2 C 6,7 C 93 % 1018,5 hPa 0,0 l/m 0 min 0 min 0 W/m 23,0 km/h (4 Bft)
23.11.2014 00:34 8,3 C 6,7 C 93 % 1018,5 hPa 0,0 l/m 0 min 0 min 0 W/m 20,9 km/h (4 Bft)
23.11.2014 00:36 8,3 C 7,2 C 93 % 1018,5 hPa 0,0 l/m 0 min 0 min 0 W/m 18,8 km/h (3 Bft)
23.11.2014 00:38 8,3 C 7,2 C 93 % 1018,5 hPa 0,0 l/m 0 min 0 min 0 W/m 20,9 km/h (4 Bft)
23.11.2014 00:40 8,2 C 6,7 C 93 % 1018,5 hPa 0,0 l/m 0 min 0 min 0 W/m 18,8 km/h (3 Bft)
23.11.2014 00:42 8,3 C 6,7 C 93 % 1018,6 hPa 0,0 l/m 0 min 0 min 0 W/m 18,8 km/h (3 Bft)
23.11.2014 00:44 8,3 C 6,7 C 93 % 1018,5 hPa 0,0 l/m 0 min 0 min 0 W/m 18,8 km/h (3 Bft)
23.11.2014 00:46 8,2 C 6,7 C 93 % 1018,5 hPa 0,0 l/m 0 min 0 min 0 W/m 18,8 km/h (3 Bft)
23.11.2014 00:48 8,2 C 6,7 C 93 % 1018,5 hPa 0,0 l/m 0 min 0 min 0 W/m 14,6 km/h (3 Bft)
23.11.2014 00:50 8,2 C 6,7 C 93 % 1018,6 hPa 0,0 l/m 0 min 0 min 0 W/m 10,5 km/h (2 Bft)
23.11.2014 00:52 8,2 C 6,7 C 93 % 1018,6 hPa 0,0 l/m 0 min 0 min 0 W/m 12,6 km/h (3 Bft)
23.11.2014 00:54 8,2 C 6,7 C 93 % 1018,7 hPa 0,0 l/m 0 min 0 min 0 W/m 12,6 km/h (3 Bft)
23.11.2014 00:56 8,2 C 6,7 C 93 % 1018,7 hPa 0,0 l/m 0 min 0 min 0 W/m 14,6 km/h (3 Bft)
23.11.2014 00:58 8,2 C 6,7 C 93 % 1018,7 hPa 0,0 l/m 0 min 0 min 0 W/m 14,6 km/h (3 Bft)
23.11.2014 01:00 8,2 C 6,7 C 93 % 1018,6 hPa 0,0 l/m 0 min 0 min 0 W/m 18,8 km/h (3 Bft)
23.11.2014 01:02 8,2 C 6,7 C 93 % 1018,6 hPa 0,0 l/m 0 min 0 min 0 W/m 16,7 km/h (3 Bft)
23.11.2014 01:04 8,2 C 6,7 C 93 % 1018,6 hPa 0,0 l/m 0 min 0 min 0 W/m 14,6 km/h (3 Bft)
23.11.2014 01:06 8,2 C 6,7 C 93 % 1018,6 hPa 0,0 l/m 0 min 0 min 0 W/m 18,8 km/h (3 Bft)
23.11.2014 01:08 8,2 C 6,7 C 93 % 1018,5 hPa 0,0 l/m 0 min 0 min 0 W/m 12,6 km/h (3 Bft)
23.11.2014 01:10 8,2 C 6,7 C 93 % 1018,5 hPa 0,0 l/m 0 min 0 min 0 W/m 14,6 km/h (3 Bft)
23.11.2014 01:12 8,2 C 6,7 C 93 % 1018,5 hPa 0,0 l/m 0 min 0 min 0 W/m 10,5 km/h (2 Bft)
23.11.2014 01:14 8,2 C 6,7 C 93 % 1018,5 hPa 0,0 l/m 0 min 0 min 0 W/m 14,6 km/h (3 Bft)
23.11.2014 01:16 8,2 C 6,7 C 93 % 1018,5 hPa 0,0 l/m 0 min 0 min 0 W/m 14,6 km/h (3 Bft)
23.11.2014 01:18 8,2 C 6,7 C 93 % 1018,5 hPa 0,0 l/m 0 min 0 min 0 W/m 18,8 km/h (3 Bft)
23.11.2014 01:20 8,2 C 6,7 C 93 % 1018,5 hPa 0,0 l/m 0 min 0 min 0 W/m 14,6 km/h (3 Bft)
23.11.2014 01:22 8,2 C 6,7 C 93 % 1018,5 hPa 0,0 l/m 0 min 0 min 0 W/m 16,7 km/h (3 Bft)
23.11.2014 01:24 8,2 C 6,7 C 93 % 1018,4 hPa 0,0 l/m 0 min 0 min 0 W/m 18,8 km/h (3 Bft)
23.11.2014 01:26 8,2 C 6,7 C 93 % 1018,4 hPa 0,0 l/m 0 min 0 min 0 W/m 12,6 km/h (3 Bft)
23.11.2014 01:28 8,1 C 6,7 C 93 % 1018,5 hPa 0,0 l/m 0 min 0 min 0 W/m 18,8 km/h (3 Bft)
23.11.2014 01:30 8,1 C 6,7 C 93 % 1018,5 hPa 0,0 l/m 0 min 0 min 0 W/m 14,6 km/h (3 Bft)
23.11.2014 01:32 8,1 C 6,7 C 93 % 1018,5 hPa 0,0 l/m 0 min 0 min 0 W/m 16,7 km/h (3 Bft)
23.11.2014 01:34 8,1 C 6,7 C 93 % 1018,5 hPa 0,0 l/m 0 min 0 min 0 W/m 16,7 km/h (3 Bft)
23.11.2014 01:36 8,1 C 6,7 C 93 % 1018,5 hPa 0,0 l/m 0 min 0 min 0 W/m 14,6 km/h (3 Bft)
23.11.2014 01:38 8,1 C 6,7 C 93 % 1018,5 hPa 0,0 l/m 0 min 0 min 0 W/m 16,7 km/h (3 Bft)
23.11.2014 01:40 8,1 C 6,7 C 93 % 1018,5 hPa 0,0 l/m 0 min 0 min 0 W/m 14,6 km/h (3 Bft)
23.11.2014 01:42 8,1 C 6,7 C 93 % 1018,5 hPa 0,0 l/m 0 min 0 min 0 W/m 16,7 km/h (3 Bft)
23.11.2014 01:44 8,1 C 6,7 C 93 % 1018,5 hPa 0,0 l/m 0 min 0 min 0 W/m 18,8 km/h (3 Bft)
23.11.2014 01:46 8,1 C 6,7 C 93 % 1018,3 hPa 0,0 l/m 0 min 0 min 0 W/m 18,8 km/h (3 Bft)
23.11.2014 01:48 8,1 C 6,7 C 93 % 1018,3 hPa 0,0 l/m 0 min 0 min 0 W/m 20,9 km/h (4 Bft)
23.11.2014 01:50 8,1 C 6,7 C 93 % 1018,3 hPa 0,0 l/m 0 min 0 min 0 W/m 18,8 km/h (3 Bft)
23.11.2014 01:52 8,1 C 6,7 C 93 % 1018,4 hPa 0,0 l/m 0 min 0 min 0 W/m 14,6 km/h (3 Bft)
23.11.2014 01:54 8,1 C 6,7 C 93 % 1018,5 hPa 0,0 l/m 0 min 0 min 0 W/m 20,9 km/h (4 Bft)
23.11.2014 01:56 8,1 C 6,7 C 93 % 1018,5 hPa 0,0 l/m 0 min 0 min 0 W/m 16,7 km/h (3 Bft)
23.11.2014 01:58 8,1 C 6,7 C 93 % 1018,5 hPa 0,0 l/m 0 min 0 min 0 W/m 12,6 km/h (3 Bft)
23.11.2014 02:00 8,1 C 6,7 C 93 % 1018,4 hPa 0,0 l/m 0 min 0 min 0 W/m 18,8 km/h (3 Bft)
23.11.2014 02:02 8,1 C 6,7 C 93 % 1018,4 hPa 0,0 l/m 0 min 0 min 0 W/m 16,7 km/h (3 Bft)
23.11.2014 02:04 8,1 C 6,7 C 93 % 1018,5 hPa 0,0 l/m 0 min 0 min 0 W/m 14,6 km/h (3 Bft)
23.11.2014 02:06 8,1 C 6,7 C 93 % 1018,5 hPa 0,0 l/m 0 min 0 min 0 W/m 16,7 km/h (3 Bft)
23.11.2014 02:08 8,1 C 6,7 C 93 % 1018,5 hPa 0,0 l/m 0 min 0 min 0 W/m 18,8 km/h (3 Bft)
23.11.2014 02:10 8,1 C 6,7 C 93 % 1018,5 hPa 0,0 l/m 0 min 0 min 0 W/m 14,6 km/h (3 Bft)
23.11.2014 02:12 8,1 C 6,7 C 93 % 1018,5 hPa 0,0 l/m 0 min 0 min 0 W/m 14,6 km/h (3 Bft)
23.11.2014 02:14 8,1 C 6,7 C 93 % 1018,5 hPa 0,0 l/m 0 min 0 min 0 W/m 14,6 km/h (3 Bft)
23.11.2014 02:16 8,1 C 6,7 C 93 % 1018,6 hPa 0,0 l/m 0 min 0 min 0 W/m 14,6 km/h (3 Bft)
23.11.2014 02:18 8,1 C 6,7 C 93 % 1018,6 hPa 0,0 l/m 0 min 0 min 0 W/m 16,7 km/h (3 Bft)
23.11.2014 02:20 8,1 C 6,7 C 93 % 1018,5 hPa 0,0 l/m 0 min 0 min 0 W/m 20,9 km/h (4 Bft)
23.11.2014 02:22 8,1 C 6,7 C 93 % 1018,5 hPa 0,0 l/m 0 min 0 min 0 W/m 18,8 km/h (3 Bft)
23.11.2014 02:24 8,1 C 6,7 C 93 % 1018,5 hPa 0,0 l/m 0 min 0 min 0 W/m 14,6 km/h (3 Bft)
23.11.2014 02:26 8,0 C 6,7 C 93 % 1018,5 hPa 0,0 l/m 0 min 0 min 0 W/m 20,9 km/h (4 Bft)
23.11.2014 02:28 8,1 C 6,7 C 93 % 1018,5 hPa 0,0 l/m 0 min 0 min 0 W/m 16,7 km/h (3 Bft)
23.11.2014 02:30 8,1 C 6,7 C 93 % 1018,5 hPa 0,0 l/m 0 min 0 min 0 W/m 20,9 km/h (4 Bft)
23.11.2014 02:32 8,1 C 6,7 C 93 % 1018,5 hPa 0,0 l/m 0 min 0 min 0 W/m 20,9 km/h (4 Bft)
23.11.2014 02:34 8,1 C 6,7 C 93 % 1018,5 hPa 0,0 l/m 0 min 0 min 0 W/m 16,7 km/h (3 Bft)
23.11.2014 02:36 8,1 C 6,7 C 93 % 1018,5 hPa 0,0 l/m 0 min 0 min 0 W/m 18,8 km/h (3 Bft)
23.11.2014 02:38 8,1 C 6,7 C 93 % 1018,5 hPa 0,0 l/m 0 min 0 min 0 W/m 16,7 km/h (3 Bft)
23.11.2014 02:40 8,1 C 6,7 C 93 % 1018,5 hPa 0,0 l/m 0 min 0 min 0 W/m 16,7 km/h (3 Bft)
23.11.2014 02:42 8,1 C 6,7 C 93 % 1018,5 hPa 0,0 l/m 0 min 0 min 0 W/m 14,6 km/h (3 Bft)
23.11.2014 02:44 8,1 C 6,7 C 93 % 1018,5 hPa 0,0 l/m 0 min 0 min 0 W/m 16,7 km/h (3 Bft)
23.11.2014 02:46 8,1 C 6,7 C 93 % 1018,5 hPa 0,0 l/m 0 min 0 min 0 W/m 16,7 km/h (3 Bft)
23.11.2014 02:48 8,1 C 6,7 C 93 % 1018,5 hPa 0,0 l/m 0 min 0 min 0 W/m 16,7 km/h (3 Bft)
23.11.2014 02:50 8,1 C 6,7 C 93 % 1018,4 hPa 0,0 l/m 0 min 0 min 0 W/m 18,8 km/h (3 Bft)
23.11.2014 02:52 8,1 C 6,7 C 93 % 1018,4 hPa 0,0 l/m 0 min 0 min 0 W/m 16,7 km/h (3 Bft)
23.11.2014 02:54 8,1 C 6,7 C 93 % 1018,5 hPa 0,0 l/m 0 min 0 min 0 W/m 18,8 km/h (3 Bft)
23.11.2014 02:56 8,1 C 6,7 C 93 % 1018,4 hPa 0,0 l/m 0 min 0 min 0 W/m 12,6 km/h (3 Bft)
23.11.2014 02:58 8,1 C 6,7 C 93 % 1018,4 hPa 0,0 l/m 0 min 0 min 0 W/m 12,6 km/h (3 Bft)
23.11.2014 03:00 8,1 C 6,7 C 93 % 1018,3 hPa 0,0 l/m 0 min 0 min 0 W/m 10,5 km/h (2 Bft)
23.11.2014 03:02 8,1 C 6,7 C 93 % 1018,3 hPa 0,0 l/m 0 min 0 min 0 W/m 14,6 km/h (3 Bft)
23.11.2014 03:04 8,1 C 6,7 C 93 % 1018,4 hPa 0,0 l/m 0 min 0 min 0 W/m 16,7 km/h (3 Bft)
23.11.2014 03:06 8,1 C 6,7 C 93 % 1018,4 hPa 0,0 l/m 0 min 0 min 0 W/m 16,7 km/h (3 Bft)
23.11.2014 03:08 8,2 C 6,7 C 93 % 1018,5 hPa 0,0 l/m 0 min 0 min 0 W/m 16,7 km/h (3 Bft)
23.11.2014 03:10 8,2 C 7,2 C 94 % 1018,4 hPa 0,0 l/m 0 min 0 min 0 W/m 18,8 km/h (3 Bft)
23.11.2014 03:12 8,2 C 7,2 C 94 % 1018,5 hPa 0,0 l/m 0 min 0 min 0 W/m 18,8 km/h (3 Bft)
23.11.2014 03:14 8,2 C 7,2 C 94 % 1018,4 hPa 0,0 l/m 0 min 0 min 0 W/m 18,8 km/h (3 Bft)
23.11.2014 03:16 8,2 C 7,2 C 94 % 1018,5 hPa 0,0 l/m 0 min 0 min 0 W/m 20,9 km/h (4 Bft)
23.11.2014 03:18 8,2 C 7,2 C 94 % 1018,5 hPa 0,0 l/m 0 min 0 min 0 W/m 16,7 km/h (3 Bft)
23.11.2014 03:20 8,2 C 7,2 C 94 % 1018,5 hPa 0,0 l/m 0 min 0 min 0 W/m 25,1 km/h (4 Bft)
23.11.2014 03:22 8,3 C 7,2 C 94 % 1018,5 hPa 0,0 l/m 0 min 0 min 0 W/m 18,8 km/h (3 Bft)
23.11.2014 03:24 8,3 C 7,2 C 94 % 1018,5 hPa 0,0 l/m 0 min 0 min 0 W/m 18,8 km/h (3 Bft)
23.11.2014 03:26 8,3 C 7,2 C 94 % 1018,5 hPa 0,0 l/m 0 min 0 min 0 W/m 18,8 km/h (3 Bft)
23.11.2014 03:28 8,3 C 7,2 C 94 % 1018,5 hPa 0,0 l/m 0 min 0 min 0 W/m 16,7 km/h (3 Bft)
23.11.2014 03:30 8,3 C 7,2 C 94 % 1018,5 hPa 0,0 l/m 0 min 0 min 0 W/m 18,8 km/h (3 Bft)
23.11.2014 03:32 8,3 C 7,2 C 94 % 1018,4 hPa 0,0 l/m 0 min 0 min 0 W/m 16,7 km/h (3 Bft)
23.11.2014 03:34 8,3 C 7,2 C 94 % 1018,3 hPa 0,0 l/m 0 min 0 min 0 W/m 14,6 km/h (3 Bft)
23.11.2014 03:36 8,3 C 7,2 C 94 % 1018,3 hPa 0,0 l/m 0 min 0 min 0 W/m 16,7 km/h (3 Bft)
23.11.2014 03:38 8,3 C 7,2 C 94 % 1018,4 hPa 0,0 l/m 0 min 0 min 0 W/m 16,7 km/h (3 Bft)
23.11.2014 03:40 8,4 C 7,2 C 94 % 1018,4 hPa 0,0 l/m 0 min 0 min 0 W/m 16,7 km/h (3 Bft)
23.11.2014 03:42 8,4 C 7,2 C 94 % 1018,3 hPa 0,0 l/m 0 min 0 min 0 W/m 18,8 km/h (3 Bft)
23.11.2014 03:44 8,4 C 7,2 C 94 % 1018,2 hPa 0,0 l/m 0 min 0 min 0 W/m 18,8 km/h (3 Bft)
23.11.2014 03:46 8,4 C 7,2 C 94 % 1018,3 hPa 0,0 l/m 0 min 0 min 0 W/m 23,0 km/h (4 Bft)
23.11.2014 03:48 8,4 C 7,2 C 94 % 1018,4 hPa 0,0 l/m 0 min 0 min 0 W/m 18,8 km/h (3 Bft)
23.11.2014 03:50 8,4 C 7,2 C 94 % 1018,3 hPa 0,0 l/m 0 min 0 min 0 W/m 27,2 km/h (4 Bft)
23.11.2014 03:52 8,4 C 7,2 C 94 % 1018,3 hPa 0,0 l/m 0 min 0 min 0 W/m 16,7 km/h (3 Bft)
23.11.2014 03:54 8,4 C 7,2 C 94 % 1018,2 hPa 0,0 l/m 0 min 0 min 0 W/m 23,0 km/h (4 Bft)
23.11.2014 03:56 8,4 C 7,2 C 93 % 1018,2 hPa 0,0 l/m 0 min 0 min 0 W/m 16,7 km/h (3 Bft)
23.11.2014 03:58 8,4 C 7,2 C 93 % 1018,2 hPa 0,0 l/m 0 min 0 min 0 W/m 23,0 km/h (4 Bft)
23.11.2014 04:00 8,4 C 7,2 C 93 % 1018,1 hPa 0,0 l/m 0 min 0 min 0 W/m 20,9 km/h (4 Bft)
23.11.2014 04:02 8,4 C 7,2 C 93 % 1018,1 hPa 0,0 l/m 0 min 0 min 0 W/m 14,6 km/h (3 Bft)
23.11.2014 04:04 8,4 C 7,2 C 93 % 1018,1 hPa 0,0 l/m 0 min 0 min 0 W/m 12,6 km/h (3 Bft)
23.11.2014 04:06 8,4 C 7,2 C 93 % 1018,2 hPa 0,0 l/m 0 min 0 min 0 W/m 18,8 km/h (3 Bft)
23.11.2014 04:08 8,4 C 7,2 C 93 % 1018,2 hPa 0,0 l/m 0 min 0 min 0 W/m 23,0 km/h (4 Bft)
23.11.2014 04:10 8,4 C 7,2 C 93 % 1018,2 hPa 0,0 l/m 0 min 0 min 0 W/m 23,0 km/h (4 Bft)
23.11.2014 04:12 8,4 C 7,2 C 93 % 1018,2 hPa 0,0 l/m 0 min 0 min 0 W/m 20,9 km/h (4 Bft)
23.11.2014 04:14 8,5 C 7,2 C 93 % 1018,3 hPa 0,0 l/m 0 min 0 min 0 W/m 14,6 km/h (3 Bft)
23.11.2014 04:16 8,4 C 7,2 C 93 % 1018,2 hPa 0,0 l/m 0 min 0 min 0 W/m 20,9 km/h (4 Bft)
23.11.2014 04:18 8,5 C 7,2 C 93 % 1018,2 hPa 0,0 l/m 0 min 0 min 0 W/m 20,9 km/h (4 Bft)
23.11.2014 04:20 8,5 C 7,2 C 93 % 1018,3 hPa 0,0 l/m 0 min 0 min 0 W/m 18,8 km/h (3 Bft)
23.11.2014 04:22 8,5 C 7,2 C 93 % 1018,2 hPa 0,0 l/m 0 min 0 min 0 W/m 20,9 km/h (4 Bft)
23.11.2014 04:24 8,5 C 7,2 C 93 % 1018,2 hPa 0,0 l/m 0 min 0 min 0 W/m 16,7 km/h (3 Bft)
23.11.2014 04:26 8,5 C 7,2 C 93 % 1018,2 hPa 0,0 l/m 0 min 0 min 0 W/m 20,9 km/h (4 Bft)
23.11.2014 04:28 8,5 C 7,2 C 93 % 1018,2 hPa 0,0 l/m 0 min 0 min 0 W/m 18,8 km/h (3 Bft)
23.11.2014 04:30 8,5 C 7,2 C 93 % 1018,3 hPa 0,0 l/m 0 min 0 min 0 W/m 23,0 km/h (4 Bft)
23.11.2014 04:32 8,5 C 7,2 C 93 % 1018,2 hPa 0,0 l/m 0 min 0 min 0 W/m 23,0 km/h (4 Bft)
23.11.2014 04:34 8,5 C 7,2 C 93 % 1018,2 hPa 0,0 l/m 0 min 0 min 0 W/m 18,8 km/h (3 Bft)
23.11.2014 04:36 8,5 C 7,2 C 93 % 1018,2 hPa 0,0 l/m 0 min 0 min 0 W/m 20,9 km/h (4 Bft)
23.11.2014 04:38 8,5 C 7,2 C 93 % 1018,2 hPa 0,0 l/m 0 min 0 min 0 W/m 16,7 km/h (3 Bft)
23.11.2014 04:40 8,5 C 7,2 C 93 % 1018,2 hPa 0,0 l/m 0 min 0 min 0 W/m 18,8 km/h (3 Bft)
23.11.2014 04:42 8,5 C 7,2 C 93 % 1018,1 hPa 0,0 l/m 0 min 0 min 0 W/m 16,7 km/h (3 Bft)
23.11.2014 04:44 8,5 C 7,2 C 93 % 1018,2 hPa 0,0 l/m 0 min 0 min 0 W/m 18,8 km/h (3 Bft)
23.11.2014 04:46 8,5 C 7,2 C 93 % 1018,2 hPa 0,0 l/m 0 min 0 min 0 W/m 16,7 km/h (3 Bft)
23.11.2014 04:48 8,5 C 7,2 C 93 % 1018,2 hPa 0,0 l/m 0 min 0 min 0 W/m 18,8 km/h (3 Bft)
23.11.2014 04:50 8,5 C 7,2 C 93 % 1018,2 hPa 0,0 l/m 0 min 0 min 0 W/m 20,9 km/h (4 Bft)
23.11.2014 04:52 8,5 C 7,2 C 93 % 1018,2 hPa 0,0 l/m 0 min 0 min 0 W/m 16,7 km/h (3 Bft)
23.11.2014 04:54 8,5 C 7,2 C 93 % 1018,2 hPa 0,0 l/m 0 min 0 min 0 W/m 25,1 km/h (4 Bft)
23.11.2014 04:56 8,5 C 7,2 C 93 % 1018,2 hPa 0,0 l/m 0 min 0 min 0 W/m 25,1 km/h (4 Bft)
23.11.2014 04:58 8,4 C 7,2 C 93 % 1018,2 hPa 0,0 l/m 0 min 0 min 0 W/m 23,0 km/h (4 Bft)
23.11.2014 05:00 8,4 C 7,2 C 93 % 1018,1 hPa 0,0 l/m 0 min 0 min 0 W/m 20,9 km/h (4 Bft)
23.11.2014 05:02 8,4 C 7,2 C 93 % 1018,1 hPa 0,0 l/m 0 min 0 min 0 W/m 20,9 km/h (4 Bft)
23.11.2014 05:04 8,4 C 7,2 C 93 % 1018,2 hPa 0,0 l/m 0 min 0 min 0 W/m 25,1 km/h (4 Bft)
23.11.2014 05:06 8,5 C 7,2 C 93 % 1018,1 hPa 0,0 l/m 0 min 0 min 0 W/m 18,8 km/h (3 Bft)
23.11.2014 05:08 8,4 C 7,2 C 93 % 1018,1 hPa 0,0 l/m 0 min 0 min 0 W/m 20,9 km/h (4 Bft)
23.11.2014 05:10 8,4 C 7,2 C 93 % 1018,1 hPa 0,0 l/m 0 min 0 min 0 W/m 20,9 km/h (4 Bft)
23.11.2014 05:12 8,4 C 7,2 C 93 % 1018,1 hPa 0,0 l/m 0 min 0 min 0 W/m 18,8 km/h (3 Bft)
23.11.2014 05:14 8,4 C 7,2 C 93 % 1018,1 hPa 0,0 l/m 0 min 0 min 0 W/m 18,8 km/h (3 Bft)
23.11.2014 05:16 8,4 C 7,2 C 93 % 1018,1 hPa 0,0 l/m 0 min 0 min 0 W/m 18,8 km/h (3 Bft)
23.11.2014 05:18 8,4 C 7,2 C 93 % 1018,1 hPa 0,0 l/m 0 min 0 min 0 W/m 16,7 km/h (3 Bft)
23.11.2014 05:20 8,4 C 7,2 C 93 % 1018,0 hPa 0,0 l/m 0 min 0 min 0 W/m 18,8 km/h (3 Bft)
23.11.2014 05:22 8,4 C 7,2 C 93 % 1018,0 hPa 0,0 l/m 0 min 0 min 0 W/m 18,8 km/h (3 Bft)
23.11.2014 05:24 8,4 C 7,2 C 93 % 1018,0 hPa 0,0 l/m 0 min 0 min 0 W/m 14,6 km/h (3 Bft)
23.11.2014 05:26 8,4 C 7,2 C 93 % 1018,0 hPa 0,0 l/m 0 min 0 min 0 W/m 14,6 km/h (3 Bft)
23.11.2014 05:28 8,4 C 7,2 C 93 % 1018,0 hPa 0,0 l/m 0 min 0 min 0 W/m 16,7 km/h (3 Bft)
23.11.2014 05:30 8,4 C 7,2 C 93 % 1018,0 hPa 0,0 l/m 0 min 0 min 0 W/m 14,6 km/h (3 Bft)
23.11.2014 05:32 8,4 C 7,2 C 93 % 1018,0 hPa 0,0 l/m 0 min 0 min 0 W/m 16,7 km/h (3 Bft)
23.11.2014 05:34 8,4 C 7,2 C 93 % 1018,0 hPa 0,0 l/m 0 min 0 min 0 W/m 16,7 km/h (3 Bft)
23.11.2014 05:36 8,4 C 7,2 C 93 % 1018,0 hPa 0,0 l/m 0 min 0 min 0 W/m 14,6 km/h (3 Bft)
23.11.2014 05:38 8,4 C 7,2 C 93 % 1018,0 hPa 0,0 l/m 0 min 0 min 0 W/m 12,6 km/h (3 Bft)
23.11.2014 05:40 8,4 C 6,7 C 93 % 1018,0 hPa 0,0 l/m 0 min 0 min 0 W/m 14,6 km/h (3 Bft)
23.11.2014 05:42 8,4 C 6,7 C 93 % 1018,0 hPa 0,0 l/m 0 min 0 min 0 W/m 12,6 km/h (3 Bft)
23.11.2014 05:44 8,4 C 6,7 C 93 % 1017,9 hPa 0,0 l/m 0 min 0 min 0 W/m 12,6 km/h (3 Bft)
23.11.2014 05:46 8,4 C 6,7 C 93 % 1017,9 hPa 0,0 l/m 0 min 0 min 0 W/m 18,8 km/h (3 Bft)
23.11.2014 05:48 8,3 C 6,7 C 93 % 1017,9 hPa 0,0 l/m 0 min 0 min 0 W/m 12,6 km/h (3 Bft)
23.11.2014 05:50 8,3 C 6,7 C 93 % 1017,9 hPa 0,0 l/m 0 min 0 min 0 W/m 16,7 km/h (3 Bft)
23.11.2014 05:52 8,3 C 6,7 C 93 % 1017,9 hPa 0,0 l/m 0 min 0 min 0 W/m 18,8 km/h (3 Bft)
23.11.2014 05:54 8,3 C 6,7 C 93 % 1018,0 hPa 0,0 l/m 0 min 0 min 0 W/m 14,6 km/h (3 Bft)
23.11.2014 05:56 8,3 C 6,7 C 93 % 1018,0 hPa 0,0 l/m 0 min 0 min 0 W/m 16,7 km/h (3 Bft)
23.11.2014 05:58 8,3 C 6,7 C 93 % 1017,9 hPa 0,0 l/m 0 min 0 min 0 W/m 16,7 km/h (3 Bft)
23.11.2014 06:00 8,3 C 6,7 C 93 % 1017,9 hPa 0,0 l/m 0 min 0 min 0 W/m 18,8 km/h (3 Bft)
23.11.2014 06:02 8,3 C 6,7 C 93 % 1017,9 hPa 0,0 l/m 0 min 0 min 0 W/m 12,6 km/h (3 Bft)
23.11.2014 06:06 8,3 C 6,7 C 93 % 1017,9 hPa 0,0 l/m 0 min 0 min 0 W/m 16,7 km/h (3 Bft)
23.11.2014 06:08 8,2 C 6,7 C 93 % 1017,9 hPa 0,0 l/m 0 min 0 min 0 W/m 12,6 km/h (3 Bft)
23.11.2014 06:10 8,2 C 6,7 C 93 % 1017,8 hPa 0,0 l/m 0 min 0 min 0 W/m 12,6 km/h (3 Bft)
23.11.2014 06:12 8,2 C 6,7 C 93 % 1017,8 hPa 0,0 l/m 0 min 0 min 0 W/m 14,6 km/h (3 Bft)
23.11.2014 06:14 8,2 C 6,7 C 93 % 1017,7 hPa 0,0 l/m 0 min 0 min 0 W/m 18,8 km/h (3 Bft)
23.11.2014 06:16 8,2 C 6,7 C 93 % 1017,7 hPa 0,0 l/m 0 min 0 min 0 W/m 18,8 km/h (3 Bft)
23.11.2014 06:18 8,2 C 6,7 C 93 % 1017,7 hPa 0,0 l/m 0 min 0 min 0 W/m 18,8 km/h (3 Bft)
23.11.2014 06:20 8,2 C 6,7 C 93 % 1017,7 hPa 0,0 l/m 0 min 0 min 0 W/m 14,6 km/h (3 Bft)
23.11.2014 06:22 8,2 C 6,7 C 93 % 1017,7 hPa 0,0 l/m 0 min 0 min 0 W/m 14,6 km/h (3 Bft)
23.11.2014 06:24 8,2 C 6,7 C 93 % 1017,7 hPa 0,0 l/m 0 min 0 min 0 W/m 14,6 km/h (3 Bft)
23.11.2014 06:26 8,2 C 6,7 C 93 % 1017,8 hPa 0,0 l/m 0 min 0 min 0 W/m 14,6 km/h (3 Bft)
23.11.2014 06:28 8,2 C 6,7 C 93 % 1017,9 hPa 0,0 l/m 0 min 0 min 0 W/m 10,5 km/h (2 Bft)
23.11.2014 06:30 8,2 C 6,7 C 93 % 1017,9 hPa 0,0 l/m 0 min 0 min 0 W/m 10,5 km/h (2 Bft)
23.11.2014 06:32 8,2 C 6,7 C 93 % 1017,8 hPa 0,0 l/m 0 min 0 min 0 W/m 14,6 km/h (3 Bft)
23.11.2014 06:34 8,2 C 6,7 C 93 % 1017,8 hPa 0,0 l/m 0 min 0 min 0 W/m 16,7 km/h (3 Bft)
23.11.2014 06:36 8,2 C 6,7 C 93 % 1017,7 hPa 0,0 l/m 0 min 0 min 0 W/m 14,6 km/h (3 Bft)
23.11.2014 06:38 8,2 C 6,7 C 93 % 1017,7 hPa 0,0 l/m 0 min 0 min 0 W/m 10,5 km/h (2 Bft)
23.11.2014 06:40 8,2 C 6,7 C 93 % 1017,7 hPa 0,0 l/m 0 min 0 min 0 W/m 18,8 km/h (3 Bft)
23.11.2014 06:42 8,2 C 6,7 C 93 % 1017,8 hPa 0,0 l/m 0 min 0 min 0 W/m 20,9 km/h (4 Bft)
23.11.2014 06:44 8,2 C 6,7 C 93 % 1017,7 hPa 0,0 l/m 0 min 0 min 0 W/m 16,7 km/h (3 Bft)
23.11.2014 06:46 8,2 C 6,7 C 93 % 1017,8 hPa 0,0 l/m 0 min 0 min 0 W/m 14,6 km/h (3 Bft)
23.11.2014 06:48 8,2 C 6,7 C 93 % 1017,8 hPa 0,0 l/m 0 min 0 min 0 W/m 16,7 km/h (3 Bft)
23.11.2014 06:50 8,2 C 6,7 C 94 % 1017,8 hPa 0,0 l/m 0 min 0 min 0 W/m 12,6 km/h (3 Bft)
23.11.2014 06:52 8,2 C 6,7 C 94 % 1017,7 hPa 0,0 l/m 0 min 0 min 0 W/m 20,9 km/h (4 Bft)
23.11.2014 06:54 8,2 C 6,7 C 94 % 1017,6 hPa 0,0 l/m 0 min 0 min 0 W/m 14,6 km/h (3 Bft)
23.11.2014 06:56 8,2 C 6,7 C 94 % 1017,7 hPa 0,0 l/m 0 min 0 min 0 W/m 12,6 km/h (3 Bft)
23.11.2014 06:58 8,2 C 6,7 C 94 % 1017,7 hPa 0,0 l/m 0 min 0 min 0 W/m 10,5 km/h (2 Bft)
23.11.2014 07:00 8,2 C 6,7 C 94 % 1017,7 hPa 0,0 l/m 0 min 0 min 0 W/m 16,7 km/h (3 Bft)
23.11.2014 07:02 8,2 C 6,7 C 94 % 1017,8 hPa 0,0 l/m 0 min 0 min 0 W/m 16,7 km/h (3 Bft)
23.11.2014 07:04 8,2 C 6,7 C 94 % 1017,9 hPa 0,0 l/m 0 min 0 min 0 W/m 14,6 km/h (3 Bft)
23.11.2014 07:06 8,2 C 6,7 C 94 % 1017,8 hPa 0,0 l/m 0 min 0 min 0 W/m 20,9 km/h (4 Bft)
23.11.2014 07:08 8,2 C 6,7 C 94 % 1017,9 hPa 0,0 l/m 0 min 0 min 0 W/m 16,7 km/h (3 Bft)
23.11.2014 07:10 8,2 C 6,7 C 94 % 1017,9 hPa 0,0 l/m 0 min 0 min 0 W/m 16,7 km/h (3 Bft)
23.11.2014 07:12 8,2 C 6,7 C 94 % 1017,9 hPa 0,0 l/m 0 min 0 min 0 W/m 18,8 km/h (3 Bft)
23.11.2014 07:14 8,2 C 6,7 C 94 % 1018,0 hPa 0,0 l/m 0 min 0 min 0 W/m 16,7 km/h (3 Bft)
23.11.2014 07:16 8,2 C 6,7 C 94 % 1017,9 hPa 0,0 l/m 0 min 0 min 0 W/m 14,6 km/h (3 Bft)
23.11.2014 07:18 8,2 C 6,7 C 94 % 1017,9 hPa 0,0 l/m 0 min 0 min 0 W/m 18,8 km/h (3 Bft)
23.11.2014 07:20 8,2 C 6,7 C 94 % 1018,0 hPa 0,0 l/m 0 min 0 min 0 W/m 12,6 km/h (3 Bft)
23.11.2014 07:22 8,2 C 6,7 C 94 % 1018,0 hPa 0,0 l/m 0 min 0 min 0 W/m 14,6 km/h (3 Bft)
23.11.2014 07:24 8,1 C 6,7 C 94 % 1018,0 hPa 0,0 l/m 0 min 0 min 0 W/m 12,6 km/h (3 Bft)
23.11.2014 07:26 8,1 C 6,7 C 94 % 1018,0 hPa 0,0 l/m 0 min 0 min 0 W/m 14,6 km/h (3 Bft)
23.11.2014 07:28 8,1 C 6,7 C 93 % 1018,0 hPa 0,0 l/m 0 min 0 min 0 W/m 12,6 km/h (3 Bft)
23.11.2014 07:30 8,1 C 6,7 C 93 % 1018,0 hPa 0,0 l/m 0 min 0 min 0 W/m 14,6 km/h (3 Bft)
23.11.2014 07:32 8,1 C 6,1 C 93 % 1018,0 hPa 0,0 l/m 0 min 0 min 0 W/m 14,6 km/h (3 Bft)
23.11.2014 07:34 8,1 C 6,7 C 93 % 1018,0 hPa 0,0 l/m 0 min 0 min 0 W/m 14,6 km/h (3 Bft)
23.11.2014 07:36 8,0 C 6,7 C 93 % 1018,1 hPa 0,0 l/m 0 min 0 min 0 W/m 14,6 km/h (3 Bft)
23.11.2014 07:38 8,0 C 6,7 C 93 % 1018,0 hPa 0,0 l/m 0 min 0 min 0 W/m 12,6 km/h (3 Bft)
23.11.2014 07:40 8,0 C 6,7 C 93 % 1018,1 hPa 0,0 l/m 0 min 0 min 0 W/m 14,6 km/h (3 Bft)
23.11.2014 07:42 8,0 C 6,1 C 93 % 1018,0 hPa 0,0 l/m 0 min 0 min 0 W/m 16,7 km/h (3 Bft)
23.11.2014 07:44 7,9 C 6,1 C 93 % 1018,0 hPa 0,0 l/m 0 min 0 min 0 W/m 14,6 km/h (3 Bft)
23.11.2014 07:46 7,9 C 6,1 C 93 % 1018,0 hPa 0,0 l/m 0 min 0 min 0 W/m 14,6 km/h (3 Bft)
23.11.2014 07:48 7,9 C 6,1 C 93 % 1018,0 hPa 0,0 l/m 0 min 0 min 0 W/m 12,6 km/h (3 Bft)
23.11.2014 07:50 7,9 C 6,1 C 93 % 1018,0 hPa 0,0 l/m 0 min 0 min 0 W/m 18,8 km/h (3 Bft)
23.11.2014 07:52 7,9 C 6,1 C 93 % 1018,0 hPa 0,0 l/m 0 min 0 min 0 W/m 12,6 km/h (3 Bft)
23.11.2014 07:54 7,9 C 6,1 C 93 % 1018,0 hPa 0,0 l/m 0 min 0 min 5 W/m 18,8 km/h (3 Bft)
23.11.2014 07:56 7,9 C 6,1 C 93 % 1018,0 hPa 0,0 l/m 0 min 0 min 6 W/m 18,8 km/h (3 Bft)
23.11.2014 07:58 7,8 C 6,1 C 93 % 1018,0 hPa 0,0 l/m 0 min 0 min 7 W/m 12,6 km/h (3 Bft)
23.11.2014 08:00 7,8 C 6,1 C 93 % 1018,0 hPa 0,0 l/m 0 min 0 min 9 W/m 12,6 km/h (3 Bft)
23.11.2014 08:02 7,8 C 6,1 C 93 % 1018,0 hPa 0,0 l/m 0 min 0 min 10 W/m 16,7 km/h (3 Bft)
23.11.2014 08:04 7,8 C 6,1 C 93 % 1018,0 hPa 0,0 l/m 0 min 0 min 11 W/m 18,8 km/h (3 Bft)
23.11.2014 08:06 7,8 C 6,1 C 93 % 1017,9 hPa 0,0 l/m 0 min 0 min 11 W/m 14,6 km/h (3 Bft)
23.11.2014 08:08 7,8 C 6,1 C 93 % 1017,9 hPa 0,0 l/m 0 min 0 min 12 W/m 18,8 km/h (3 Bft)
23.11.2014 08:10 7,8 C 6,1 C 93 % 1017,9 hPa 0,0 l/m 0 min 0 min 12 W/m 18,8 km/h (3 Bft)
23.11.2014 08:12 7,8 C 6,1 C 93 % 1017,8 hPa 0,0 l/m 0 min 0 min 14 W/m 14,6 km/h (3 Bft)
23.11.2014 08:14 7,7 C 6,1 C 93 % 1017,9 hPa 0,0 l/m 0 min 0 min 15 W/m 18,8 km/h (3 Bft)
23.11.2014 08:16 7,7 C 6,1 C 93 % 1017,9 hPa 0,0 l/m 0 min 0 min 17 W/m 18,8 km/h (3 Bft)
23.11.2014 08:18 7,7 C 6,1 C 93 % 1018,0 hPa 0,0 l/m 2 min 0 min 19 W/m 16,7 km/h (3 Bft)
23.11.2014 08:20 7,7 C 6,1 C 94 % 1018,0 hPa 0,0 l/m 2 min 0 min 20 W/m 16,7 km/h (3 Bft)
23.11.2014 08:22 7,7 C 6,1 C 94 % 1018,0 hPa 0,0 l/m 2 min 0 min 22 W/m 18,8 km/h (3 Bft)
23.11.2014 08:24 7,7 C 6,1 C 94 % 1018,0 hPa 0,0 l/m 2 min 0 min 24 W/m 14,6 km/h (3 Bft)
23.11.2014 08:26 7,7 C 6,1 C 94 % 1018,1 hPa 0,0 l/m 2 min 0 min 25 W/m 16,7 km/h (3 Bft)
23.11.2014 08:28 7,7 C 6,1 C 94 % 1018,1 hPa 0,0 l/m 2 min 0 min 26 W/m 12,6 km/h (3 Bft)
23.11.2014 08:30 7,7 C 6,1 C 94 % 1018,1 hPa 0,0 l/m 2 min 0 min 28 W/m 16,7 km/h (3 Bft)
23.11.2014 08:32 7,7 C 6,1 C 94 % 1018,1 hPa 0,0 l/m 2 min 0 min 30 W/m 14,6 km/h (3 Bft)
23.11.2014 08:34 7,7 C 6,1 C 94 % 1018,1 hPa 0,0 l/m 2 min 0 min 32 W/m 16,7 km/h (3 Bft)
23.11.2014 08:36 7,7 C 6,7 C 94 % 1018,1 hPa 0,0 l/m 2 min 0 min 33 W/m 12,6 km/h (3 Bft)
23.11.2014 08:38 7,7 C 6,7 C 94 % 1018,1 hPa 0,0 l/m 2 min 0 min 36 W/m 14,6 km/h (3 Bft)
23.11.2014 08:40 7,7 C 6,7 C 94 % 1018,1 hPa 0,0 l/m 2 min 0 min 38 W/m 16,7 km/h (3 Bft)
23.11.2014 08:42 7,7 C 6,7 C 94 % 1018,1 hPa 0,0 l/m 2 min 0 min 40 W/m 12,6 km/h (3 Bft)
23.11.2014 08:44 7,7 C 6,7 C 94 % 1018,2 hPa 0,0 l/m 2 min 0 min 42 W/m 14,6 km/h (3 Bft)
23.11.2014 08:46 7,7 C 6,7 C 94 % 1018,2 hPa 0,0 l/m 2 min 0 min 45 W/m 16,7 km/h (3 Bft)
23.11.2014 08:48 7,7 C 6,7 C 94 % 1018,2 hPa 0,0 l/m 2 min 0 min 50 W/m 18,8 km/h (3 Bft)
23.11.2014 08:50 7,7 C 6,7 C 94 % 1018,1 hPa 0,0 l/m 2 min 0 min 53 W/m 16,7 km/h (3 Bft)
23.11.2014 08:52 7,7 C 6,7 C 94 % 1018,1 hPa 0,0 l/m 2 min 0 min 56 W/m 20,9 km/h (4 Bft)
23.11.2014 08:54 7,7 C 6,7 C 94 % 1018,1 hPa 0,0 l/m 2 min 0 min 58 W/m 20,9 km/h (4 Bft)
23.11.2014 08:56 7,7 C 6,7 C 94 % 1018,1 hPa 0,0 l/m 2 min 0 min 62 W/m 18,8 km/h (3 Bft)
23.11.2014 08:58 7,8 C 6,7 C 94 % 1018,2 hPa 0,0 l/m 2 min 0 min 66 W/m 18,8 km/h (3 Bft)
23.11.2014 09:00 7,8 C 6,7 C 94 % 1018,2 hPa 0,0 l/m 2 min 0 min 68 W/m 18,8 km/h (3 Bft)
23.11.2014 09:02 7,8 C 6,7 C 94 % 1018,2 hPa 0,0 l/m 2 min 0 min 70 W/m 16,7 km/h (3 Bft)
23.11.2014 09:04 7,8 C 6,7 C 94 % 1018,2 hPa 0,0 l/m 2 min 0 min 69 W/m 20,9 km/h (4 Bft)
23.11.2014 09:06 7,8 C 6,7 C 94 % 1018,2 hPa 0,0 l/m 2 min 0 min 72 W/m 12,6 km/h (3 Bft)
23.11.2014 09:08 7,8 C 6,7 C 94 % 1018,1 hPa 0,0 l/m 2 min 0 min 76 W/m 20,9 km/h (4 Bft)
23.11.2014 09:10 7,9 C 6,7 C 94 % 1018,0 hPa 0,0 l/m 2 min 0 min 83 W/m 20,9 km/h (4 Bft)
23.11.2014 09:12 7,9 C 6,7 C 94 % 1018,0 hPa 0,0 l/m 2 min 0 min 88 W/m 18,8 km/h (3 Bft)
23.11.2014 09:14 7,9 C 6,7 C 93 % 1018,0 hPa 0,0 l/m 2 min 0 min 92 W/m 20,9 km/h (4 Bft)
23.11.2014 09:16 7,9 C 7,2 C 93 % 1018,0 hPa 0,0 l/m 2 min 0 min 96 W/m 18,8 km/h (3 Bft)
23.11.2014 09:18 7,9 C 7,2 C 94 % 1018,0 hPa 0,0 l/m 2 min 0 min 101 W/m 14,6 km/h (3 Bft)
23.11.2014 09:20 7,9 C 7,2 C 94 % 1018,2 hPa 0,0 l/m 2 min 0 min 107 W/m 16,7 km/h (3 Bft)
23.11.2014 09:22 8,0 C 7,2 C 94 % 1018,2 hPa 0,0 l/m 2 min 0 min 112 W/m 14,6 km/h (3 Bft)
23.11.2014 09:24 8,0 C 7,2 C 94 % 1018,1 hPa 0,0 l/m 2 min 0 min 115 W/m 12,6 km/h (3 Bft)
23.11.2014 09:26 8,0 C 7,2 C 93 % 1018,0 hPa 0,0 l/m 2 min 0 min 114 W/m 23,0 km/h (4 Bft)
23.11.2014 09:28 8,1 C 7,2 C 93 % 1017,9 hPa 0,0 l/m 2 min 0 min 117 W/m 14,6 km/h (3 Bft)
23.11.2014 09:30 8,1 C 7,2 C 93 % 1017,8 hPa 0,0 l/m 2 min 0 min 119 W/m 20,9 km/h (4 Bft)
23.11.2014 09:32 8,1 C 7,2 C 93 % 1017,8 hPa 0,0 l/m 2 min 0 min 115 W/m 14,6 km/h (3 Bft)
23.11.2014 09:34 8,1 C 7,2 C 93 % 1017,9 hPa 0,0 l/m 2 min 0 min 100 W/m 16,7 km/h (3 Bft)
23.11.2014 09:36 8,2 C 7,2 C 93 % 1017,8 hPa 0,0 l/m 0 min 0 min 88 W/m 12,6 km/h (3 Bft)
23.11.2014 09:38 8,2 C 7,2 C 93 % 1017,9 hPa 0,0 l/m 0 min 0 min 75 W/m 18,8 km/h (3 Bft)
23.11.2014 09:40 8,2 C 7,2 C 93 % 1017,9 hPa 0,0 l/m 0 min 0 min 76 W/m 16,7 km/h (3 Bft)
23.11.2014 09:42 8,2 C 7,2 C 93 % 1017,9 hPa 0,0 l/m 0 min 0 min 94 W/m 16,7 km/h (3 Bft)
23.11.2014 09:44 8,2 C 7,2 C 93 % 1018,0 hPa 0,0 l/m 0 min 0 min 96 W/m 18,8 km/h (3 Bft)
23.11.2014 09:46 8,2 C 7,2 C 93 % 1018,1 hPa 0,0 l/m 0 min 0 min 101 W/m 20,9 km/h (4 Bft)
23.11.2014 09:48 8,3 C 7,2 C 93 % 1017,9 hPa 0,0 l/m 2 min 0 min 108 W/m 20,9 km/h (4 Bft)
23.11.2014 09:50 8,3 C 7,2 C 93 % 1017,9 hPa 0,0 l/m 2 min 0 min 115 W/m 23,0 km/h (4 Bft)
23.11.2014 09:52 8,3 C 7,2 C 93 % 1017,7 hPa 0,0 l/m 2 min 0 min 124 W/m 18,8 km/h (3 Bft)
23.11.2014 09:54 8,3 C 7,2 C 93 % 1017,9 hPa 0,0 l/m 2 min 0 min 128 W/m 18,8 km/h (3 Bft)
23.11.2014 09:56 8,3 C 7,2 C 93 % 1018,0 hPa 0,0 l/m 2 min 0 min 125 W/m 23,0 km/h (4 Bft)
23.11.2014 09:58 8,4 C 7,2 C 93 % 1018,1 hPa 0,0 l/m 2 min 0 min 115 W/m 23,0 km/h (4 Bft)
23.11.2014 10:00 8,4 C 7,2 C 93 % 1018,2 hPa 0,0 l/m 0 min 0 min 111 W/m 25,1 km/h (4 Bft)
23.11.2014 10:02 8,4 C 7,2 C 92 % 1018,2 hPa 0,0 l/m 0 min 0 min 97 W/m 18,8 km/h (3 Bft)
23.11.2014 10:04 8,4 C 7,2 C 93 % 1018,2 hPa 0,0 l/m 0 min 0 min 101 W/m 18,8 km/h (3 Bft)
23.11.2014 10:06 8,4 C 7,2 C 93 % 1018,2 hPa 0,0 l/m 2 min 0 min 130 W/m 16,7 km/h (3 Bft)
23.11.2014 10:08 8,4 C 7,2 C 92 % 1018,3 hPa 0,0 l/m 2 min 0 min 162 W/m 16,7 km/h (3 Bft)
23.11.2014 10:10 8,5 C 7,2 C 92 % 1018,2 hPa 0,0 l/m 2 min 0 min 171 W/m 18,8 km/h (3 Bft)
23.11.2014 10:12 8,5 C 7,8 C 92 % 1018,2 hPa 0,0 l/m 2 min 0 min 164 W/m 14,6 km/h (3 Bft)
23.11.2014 10:14 8,6 C 7,8 C 92 % 1018,2 hPa 0,0 l/m 2 min 0 min 170 W/m 16,7 km/h (3 Bft)
23.11.2014 10:16 8,6 C 7,8 C 92 % 1018,2 hPa 0,0 l/m 2 min 0 min 152 W/m 18,8 km/h (3 Bft)
23.11.2014 10:18 8,6 C 7,8 C 92 % 1018,1 hPa 0,0 l/m 2 min 0 min 146 W/m 23,0 km/h (4 Bft)
23.11.2014 10:20 8,7 C 7,8 C 92 % 1018,0 hPa 0,0 l/m 2 min 0 min 171 W/m 23,0 km/h (4 Bft)
23.11.2014 10:22 8,7 C 7,8 C 92 % 1018,2 hPa 0,0 l/m 2 min 0 min 171 W/m 12,6 km/h (3 Bft)
23.11.2014 10:24 8,7 C 7,8 C 92 % 1018,1 hPa 0,0 l/m 2 min 0 min 183 W/m 20,9 km/h (4 Bft)
23.11.2014 10:26 8,8 C 7,8 C 92 % 1018,1 hPa 0,0 l/m 2 min 0 min 183 W/m 20,9 km/h (4 Bft)
23.11.2014 10:28 8,8 C 7,8 C 92 % 1018,2 hPa 0,0 l/m 2 min 0 min 163 W/m 20,9 km/h (4 Bft)
23.11.2014 10:30 8,9 C 7,8 C 92 % 1018,2 hPa 0,0 l/m 2 min 0 min 169 W/m 23,0 km/h (4 Bft)
23.11.2014 10:32 8,9 C 7,8 C 92 % 1018,1 hPa 0,0 l/m 2 min 0 min 174 W/m 20,9 km/h (4 Bft)
23.11.2014 10:34 9,0 C 7,8 C 92 % 1018,2 hPa 0,0 l/m 2 min 0 min 169 W/m 16,7 km/h (3 Bft)
23.11.2014 10:36 9,1 C 7,8 C 91 % 1018,1 hPa 0,0 l/m 2 min 0 min 189 W/m 29,3 km/h (5 Bft)
23.11.2014 10:38 9,1 C 7,8 C 91 % 1018,1 hPa 0,0 l/m 2 min 0 min 206 W/m 25,1 km/h (4 Bft)
23.11.2014 10:40 9,2 C 8,3 C 91 % 1018,1 hPa 0,0 l/m 2 min 0 min 204 W/m 20,9 km/h (4 Bft)
23.11.2014 10:42 9,2 C 8,3 C 91 % 1018,1 hPa 0,0 l/m 2 min 0 min 193 W/m 18,8 km/h (3 Bft)
23.11.2014 10:44 9,3 C 8,3 C 91 % 1018,0 hPa 0,0 l/m 2 min 0 min 187 W/m 25,1 km/h (4 Bft)
23.11.2014 10:46 9,4 C 8,3 C 91 % 1018,1 hPa 0,0 l/m 2 min 0 min 174 W/m 18,8 km/h (3 Bft)
23.11.2014 10:48 9,4 C 8,3 C 90 % 1018,0 hPa 0,0 l/m 2 min 0 min 186 W/m 23,0 km/h (4 Bft)
23.11.2014 10:50 9,5 C 8,3 C 90 % 1018,1 hPa 0,0 l/m 2 min 0 min 215 W/m 18,8 km/h (3 Bft)
23.11.2014 10:52 9,6 C 8,3 C 90 % 1018,0 hPa 0,0 l/m 2 min 0 min 251 W/m 20,9 km/h (4 Bft)
23.11.2014 10:54 9,6 C 8,3 C 90 % 1018,0 hPa 0,0 l/m 2 min 0 min 243 W/m 16,7 km/h (3 Bft)
23.11.2014 10:56 9,7 C 8,9 C 90 % 1017,9 hPa 0,0 l/m 2 min 0 min 254 W/m 23,0 km/h (4 Bft)
23.11.2014 10:58 9,8 C 8,9 C 90 % 1017,9 hPa 0,0 l/m 2 min 0 min 264 W/m 16,7 km/h (3 Bft)
23.11.2014 11:00 9,9 C 8,9 C 90 % 1017,9 hPa 0,0 l/m 2 min 0 min 229 W/m 12,6 km/h (3 Bft)
23.11.2014 11:02 9,9 C 8,9 C 90 % 1017,9 hPa 0,0 l/m 2 min 0 min 193 W/m 18,8 km/h (3 Bft)
23.11.2014 11:04 10,1 C 8,9 C 90 % 1017,9 hPa 0,0 l/m 2 min 0 min 201 W/m 27,2 km/h (4 Bft)
23.11.2014 11:06 10,1 C 8,9 C 89 % 1017,9 hPa 0,0 l/m 2 min 0 min 219 W/m 16,7 km/h (3 Bft)
23.11.2014 11:08 10,2 C 8,9 C 89 % 1017,9 hPa 0,0 l/m 2 min 0 min 239 W/m 18,8 km/h (3 Bft)
23.11.2014 11:10 10,3 C 8,9 C 89 % 1018,0 hPa 0,0 l/m 2 min 0 min 235 W/m 14,6 km/h (3 Bft)
23.11.2014 11:12 10,3 C 8,9 C 89 % 1017,9 hPa 0,0 l/m 2 min 0 min 228 W/m 16,7 km/h (3 Bft)
23.11.2014 11:14 10,4 C 8,9 C 89 % 1017,9 hPa 0,0 l/m 2 min 0 min 254 W/m 14,6 km/h (3 Bft)
23.11.2014 11:16 10,5 C 8,9 C 88 % 1017,9 hPa 0,0 l/m 2 min 0 min 240 W/m 20,9 km/h (4 Bft)
23.11.2014 11:18 10,6 C 8,9 C 88 % 1017,9 hPa 0,0 l/m 2 min 0 min 230 W/m 18,8 km/h (3 Bft)
23.11.2014 11:20 10,6 C 9,4 C 88 % 1017,9 hPa 0,0 l/m 2 min 0 min 262 W/m 18,8 km/h (3 Bft)
23.11.2014 11:22 10,7 C 9,4 C 88 % 1017,9 hPa 0,0 l/m 2 min 0 min 262 W/m 20,9 km/h (4 Bft)
23.11.2014 11:24 10,7 C 9,4 C 88 % 1017,9 hPa 0,0 l/m 2 min 0 min 257 W/m 14,6 km/h (3 Bft)
23.11.2014 11:26 10,8 C 9,4 C 87 % 1017,9 hPa 0,0 l/m 2 min 0 min 266 W/m 18,8 km/h (3 Bft)
23.11.2014 11:28 10,9 C 9,4 C 87 % 1017,9 hPa 0,0 l/m 2 min 0 min 269 W/m 27,2 km/h (4 Bft)
23.11.2014 11:30 10,9 C 9,4 C 87 % 1017,9 hPa 0,0 l/m 2 min 0 min 274 W/m 25,1 km/h (4 Bft)
23.11.2014 11:32 11,0 C 9,4 C 87 % 1017,9 hPa 0,0 l/m 2 min 0 min 268 W/m 25,1 km/h (4 Bft)
23.11.2014 11:34 11,1 C 9,4 C 86 % 1017,9 hPa 0,0 l/m 2 min 0 min 287 W/m 25,1 km/h (4 Bft)
23.11.2014 11:36 11,1 C 9,4 C 86 % 1017,8 hPa 0,0 l/m 2 min 0 min 286 W/m 20,9 km/h (4 Bft)
23.11.2014 11:38 11,2 C 9,4 C 86 % 1017,9 hPa 0,0 l/m 2 min 0 min 275 W/m 18,8 km/h (3 Bft)
23.11.2014 11:40 11,2 C 10,0 C 86 % 1017,7 hPa 0,0 l/m 2 min 0 min 288 W/m 20,9 km/h (4 Bft)
23.11.2014 11:42 11,3 C 10,0 C 86 % 1017,7 hPa 0,0 l/m 2 min 0 min 264 W/m 16,7 km/h (3 Bft)
23.11.2014 11:44 11,3 C 10,0 C 86 % 1017,7 hPa 0,0 l/m 2 min 0 min 245 W/m 18,8 km/h (3 Bft)
23.11.2014 11:46 11,4 C 10,0 C 86 % 1017,6 hPa 0,0 l/m 2 min 0 min 285 W/m 20,9 km/h (4 Bft)
23.11.2014 11:48 11,4 C 10,0 C 85 % 1017,7 hPa 0,0 l/m 2 min 0 min 298 W/m 18,8 km/h (3 Bft)
23.11.2014 11:50 11,5 C 10,0 C 86 % 1017,7 hPa 0,0 l/m 2 min 0 min 279 W/m 23,0 km/h (4 Bft)
23.11.2014 11:52 11,6 C 10,0 C 85 % 1017,6 hPa 0,0 l/m 2 min 0 min 238 W/m 25,1 km/h (4 Bft)
23.11.2014 11:54 11,6 C 10,0 C 85 % 1017,7 hPa 0,0 l/m 2 min 0 min 244 W/m 25,1 km/h (4 Bft)
23.11.2014 11:56 11,6 C 10,0 C 85 % 1017,7 hPa 0,0 l/m 2 min 0 min 251 W/m 25,1 km/h (4 Bft)
23.11.2014 11:58 11,7 C 10,0 C 84 % 1017,6 hPa 0,0 l/m 2 min 0 min 261 W/m 18,8 km/h (3 Bft)
23.11.2014 12:00 11,7 C 10,0 C 85 % 1017,5 hPa 0,0 l/m 2 min 0 min 259 W/m 27,2 km/h (4 Bft)
23.11.2014 12:03 11,7 C 10,0 C 85 % 1017,5 hPa 0,0 l/m 2 min 0 min 248 W/m 29,3 km/h (5 Bft)
23.11.2014 12:06 11,7 C 10,0 C 85 % 1017,4 hPa 0,0 l/m 2 min 0 min 251 W/m 29,3 km/h (5 Bft)
23.11.2014 12:08 11,8 C 10,0 C 84 % 1017,4 hPa 0,0 l/m 2 min 0 min 234 W/m 20,9 km/h (4 Bft)
23.11.2014 12:10 11,8 C 10,0 C 84 % 1017,3 hPa 0,0 l/m 2 min 0 min 209 W/m 20,9 km/h (4 Bft)
23.11.2014 12:12 11,8 C 10,0 C 84 % 1017,3 hPa 0,0 l/m 2 min 0 min 206 W/m 16,7 km/h (3 Bft)
23.11.2014 12:14 11,9 C 10,0 C 84 % 1017,3 hPa 0,0 l/m 2 min 0 min 205 W/m 23,0 km/h (4 Bft)
23.11.2014 12:16 11,9 C 10,0 C 84 % 1017,3 hPa 0,0 l/m 2 min 0 min 211 W/m 20,9 km/h (4 Bft)
23.11.2014 12:18 11,9 C 10,0 C 84 % 1017,3 hPa 0,0 l/m 2 min 0 min 193 W/m 20,9 km/h (4 Bft)
23.11.2014 12:20 11,9 C 10,0 C 84 % 1017,3 hPa 0,0 l/m 2 min 0 min 189 W/m 25,1 km/h (4 Bft)
23.11.2014 12:22 11,9 C 10,0 C 84 % 1017,3 hPa 0,0 l/m 2 min 0 min 192 W/m 25,1 km/h (4 Bft)
23.11.2014 12:24 11,9 C 10,0 C 84 % 1017,3 hPa 0,0 l/m 2 min 0 min 215 W/m 18,8 km/h (3 Bft)
23.11.2014 12:26 11,9 C 10,0 C 84 % 1017,3 hPa 0,0 l/m 2 min 0 min 209 W/m 27,2 km/h (4 Bft)
23.11.2014 12:28 11,9 C 10,0 C 84 % 1017,2 hPa 0,0 l/m 2 min 0 min 209 W/m 23,0 km/h (4 Bft)
23.11.2014 12:30 11,9 C 10,0 C 84 % 1017,2 hPa 0,0 l/m 2 min 0 min 218 W/m 18,8 km/h (3 Bft)
23.11.2014 12:32 11,9 C 10,0 C 84 % 1017,2 hPa 0,0 l/m 2 min 0 min 219 W/m 23,0 km/h (4 Bft)
23.11.2014 12:34 11,9 C 10,0 C 84 % 1017,1 hPa 0,0 l/m 2 min 0 min 215 W/m 18,8 km/h (3 Bft)
23.11.2014 12:36 12,0 C 10,0 C 84 % 1017,1 hPa 0,0 l/m 2 min 0 min 237 W/m 14,6 km/h (3 Bft)
23.11.2014 12:38 12,1 C 10,6 C 84 % 1017,1 hPa 0,0 l/m 2 min 0 min 237 W/m 23,0 km/h (4 Bft)
23.11.2014 12:40 12,1 C 10,6 C 84 % 1017,1 hPa 0,0 l/m 2 min 0 min 237 W/m 23,0 km/h (4 Bft)
23.11.2014 12:42 12,1 C 10,6 C 84 % 1017,0 hPa 0,0 l/m 2 min 0 min 236 W/m 18,8 km/h (3 Bft)
23.11.2014 12:44 12,2 C 10,6 C 84 % 1017,0 hPa 0,0 l/m 2 min 0 min 243 W/m 20,9 km/h (4 Bft)
23.11.2014 12:46 12,2 C 10,6 C 84 % 1017,0 hPa 0,0 l/m 2 min 0 min 250 W/m 14,6 km/h (3 Bft)
23.11.2014 12:48 12,3 C 10,6 C 84 % 1017,0 hPa 0,0 l/m 2 min 0 min 246 W/m 16,7 km/h (3 Bft)
23.11.2014 12:50 12,3 C 10,6 C 84 % 1017,0 hPa 0,0 l/m 2 min 0 min 249 W/m 18,8 km/h (3 Bft)
23.11.2014 12:52 12,4 C 10,6 C 84 % 1016,9 hPa 0,0 l/m 2 min 0 min 247 W/m 25,1 km/h (4 Bft)
23.11.2014 12:54 12,4 C 10,6 C 84 % 1016,9 hPa 0,0 l/m 2 min 0 min 248 W/m 25,1 km/h (4 Bft)
23.11.2014 12:56 12,4 C 10,6 C 83 % 1016,8 hPa 0,0 l/m 2 min 0 min 242 W/m 23,0 km/h (4 Bft)
23.11.2014 12:58 12,5 C 10,6 C 83 % 1016,7 hPa 0,0 l/m 2 min 0 min 240 W/m 23,0 km/h (4 Bft)
23.11.2014 13:00 12,5 C 10,6 C 83 % 1016,8 hPa 0,0 l/m 2 min 0 min 276 W/m 23,0 km/h (4 Bft)
23.11.2014 13:02 12,6 C 10,6 C 83 % 1016,8 hPa 0,0 l/m 2 min 0 min 284 W/m 23,0 km/h (4 Bft)
23.11.2014 13:04 12,6 C 10,6 C 83 % 1016,7 hPa 0,0 l/m 2 min 0 min 282 W/m 23,0 km/h (4 Bft)
23.11.2014 13:06 12,6 C 10,6 C 83 % 1016,6 hPa 0,0 l/m 2 min 0 min 280 W/m 16,7 km/h (3 Bft)
23.11.2014 13:08 12,7 C 11,1 C 82 % 1016,6 hPa 0,0 l/m 2 min 0 min 269 W/m 16,7 km/h (3 Bft)
23.11.2014 13:10 12,7 C 11,1 C 82 % 1016,5 hPa 0,0 l/m 2 min 0 min 222 W/m 20,9 km/h (4 Bft)
23.11.2014 13:12 12,7 C 10,6 C 82 % 1016,5 hPa 0,0 l/m 2 min 0 min 211 W/m 25,1 km/h (4 Bft)
23.11.2014 13:14 12,8 C 10,6 C 82 % 1016,5 hPa 0,0 l/m 2 min 0 min 229 W/m 18,8 km/h (3 Bft)
23.11.2014 13:16 12,8 C 10,6 C 82 % 1016,5 hPa 0,0 l/m 2 min 0 min 250 W/m 25,1 km/h (4 Bft)
23.11.2014 13:18 12,8 C 10,6 C 82 % 1016,4 hPa 0,0 l/m 2 min 0 min 247 W/m 25,1 km/h (4 Bft)
23.11.2014 13:20 12,8 C 10,6 C 81 % 1016,4 hPa 0,0 l/m 2 min 0 min 250 W/m 20,9 km/h (4 Bft)
23.11.2014 13:22 12,8 C 11,1 C 81 % 1016,3 hPa 0,0 l/m 2 min 0 min 246 W/m 25,1 km/h (4 Bft)
23.11.2014 13:24 12,9 C 11,1 C 82 % 1016,3 hPa 0,0 l/m 2 min 0 min 238 W/m 20,9 km/h (4 Bft)
23.11.2014 13:26 12,9 C 11,1 C 81 % 1016,4 hPa 0,0 l/m 2 min 0 min 217 W/m 25,1 km/h (4 Bft)
23.11.2014 13:28 12,9 C 11,1 C 81 % 1016,3 hPa 0,0 l/m 2 min 0 min 205 W/m 25,1 km/h (4 Bft)
23.11.2014 13:30 12,9 C 11,1 C 81 % 1016,2 hPa 0,0 l/m 2 min 0 min 213 W/m 33,5 km/h (5 Bft)
23.11.2014 13:32 12,9 C 10,6 C 81 % 1016,2 hPa 0,0 l/m 2 min 0 min 196 W/m 27,2 km/h (4 Bft)
23.11.2014 13:34 12,9 C 10,6 C 81 % 1016,2 hPa 0,0 l/m 2 min 0 min 175 W/m 23,0 km/h (4 Bft)
23.11.2014 13:36 12,9 C 10,6 C 81 % 1016,2 hPa 0,0 l/m 2 min 0 min 205 W/m 27,2 km/h (4 Bft)
23.11.2014 13:38 12,9 C 10,6 C 81 % 1016,2 hPa 0,0 l/m 2 min 0 min 199 W/m 27,2 km/h (4 Bft)
23.11.2014 13:40 12,8 C 10,6 C 81 % 1016,2 hPa 0,0 l/m 2 min 0 min 178 W/m 23,0 km/h (4 Bft)
23.11.2014 13:42 12,8 C 10,6 C 81 % 1016,3 hPa 0,0 l/m 2 min 0 min 166 W/m 23,0 km/h (4 Bft)
23.11.2014 13:44 12,8 C 10,6 C 81 % 1016,3 hPa 0,0 l/m 2 min 0 min 186 W/m 20,9 km/h (4 Bft)
23.11.2014 13:46 12,8 C 10,6 C 81 % 1016,2 hPa 0,0 l/m 2 min 0 min 216 W/m 25,1 km/h (4 Bft)
23.11.2014 13:48 12,8 C 10,6 C 81 % 1016,2 hPa 0,0 l/m 2 min 0 min 207 W/m 23,0 km/h (4 Bft)
23.11.2014 13:50 12,8 C 10,6 C 81 % 1016,2 hPa 0,0 l/m 2 min 0 min 156 W/m 16,7 km/h (3 Bft)
23.11.2014 13:52 12,8 C 10,6 C 81 % 1016,1 hPa 0,0 l/m 2 min 0 min 156 W/m 18,8 km/h (3 Bft)
23.11.2014 13:54 12,8 C 10,6 C 81 % 1016,1 hPa 0,0 l/m 2 min 0 min 152 W/m 23,0 km/h (4 Bft)
23.11.2014 13:56 12,8 C 10,6 C 81 % 1016,1 hPa 0,0 l/m 0 min 0 min 147 W/m 20,9 km/h (4 Bft)
23.11.2014 13:58 12,8 C 10,6 C 81 % 1016,1 hPa 0,0 l/m 0 min 0 min 143 W/m 14,6 km/h (3 Bft)
23.11.2014 14:00 12,8 C 10,6 C 81 % 1016,1 hPa 0,0 l/m 2 min 0 min 173 W/m 23,0 km/h (4 Bft)
23.11.2014 14:02 12,7 C 10,6 C 82 % 1016,1 hPa 0,0 l/m 2 min 0 min 179 W/m 16,7 km/h (3 Bft)
23.11.2014 14:04 12,7 C 10,6 C 82 % 1016,0 hPa 0,0 l/m 2 min 0 min 175 W/m 25,1 km/h (4 Bft)
23.11.2014 14:06 12,7 C 10,6 C 82 % 1016,0 hPa 0,0 l/m 2 min 0 min 169 W/m 27,2 km/h (4 Bft)
23.11.2014 14:08 12,7 C 10,6 C 82 % 1016,0 hPa 0,0 l/m 2 min 0 min 173 W/m 18,8 km/h (3 Bft)
23.11.2014 14:10 12,7 C 11,1 C 82 % 1015,9 hPa 0,0 l/m 2 min 0 min 173 W/m 25,1 km/h (4 Bft)
23.11.2014 14:12 12,7 C 10,6 C 82 % 1015,8 hPa 0,0 l/m 0 min 0 min 136 W/m 20,9 km/h (4 Bft)
23.11.2014 14:14 12,7 C 10,6 C 82 % 1015,7 hPa 0,0 l/m 2 min 0 min 143 W/m 20,9 km/h (4 Bft)
23.11.2014 14:16 12,7 C 10,6 C 81 % 1015,6 hPa 0,0 l/m 2 min 0 min 146 W/m 27,2 km/h (4 Bft)
23.11.2014 14:18 12,7 C 10,6 C 81 % 1015,6 hPa 0,0 l/m 2 min 0 min 160 W/m 29,3 km/h (5 Bft)
23.11.2014 14:20 12,6 C 10,6 C 81 % 1015,6 hPa 0,0 l/m 2 min 0 min 148 W/m 23,0 km/h (4 Bft)
23.11.2014 14:22 12,6 C 10,6 C 81 % 1015,5 hPa 0,0 l/m 2 min 0 min 143 W/m 20,9 km/h (4 Bft)
23.11.2014 14:24 12,6 C 10,6 C 82 % 1015,5 hPa 0,0 l/m 2 min 0 min 159 W/m 27,2 km/h (4 Bft)
23.11.2014 14:26 12,6 C 10,6 C 82 % 1015,5 hPa 0,0 l/m 2 min 0 min 150 W/m 18,8 km/h (3 Bft)
23.11.2014 14:28 12,6 C 10,6 C 82 % 1015,5 hPa 0,0 l/m 2 min 0 min 149 W/m 18,8 km/h (3 Bft)
23.11.2014 14:30 12,6 C 10,6 C 82 % 1015,5 hPa 0,0 l/m 2 min 0 min 138 W/m 23,0 km/h (4 Bft)
23.11.2014 14:32 12,6 C 10,6 C 82 % 1015,5 hPa 0,0 l/m 0 min 0 min 118 W/m 18,8 km/h (3 Bft)
23.11.2014 14:34 12,6 C 10,6 C 82 % 1015,5 hPa 0,0 l/m 2 min 0 min 135 W/m 23,0 km/h (4 Bft)
23.11.2014 14:36 12,5 C 10,6 C 82 % 1015,4 hPa 0,0 l/m 2 min 0 min 123 W/m 14,6 km/h (3 Bft)
23.11.2014 14:38 12,5 C 10,6 C 82 % 1015,5 hPa 0,0 l/m 0 min 0 min 107 W/m 18,8 km/h (3 Bft)
23.11.2014 14:40 12,5 C 10,6 C 82 % 1015,5 hPa 0,0 l/m 0 min 0 min 103 W/m 25,1 km/h (4 Bft)
23.11.2014 14:42 12,5 C 10,6 C 82 % 1015,5 hPa 0,0 l/m 0 min 0 min 114 W/m 23,0 km/h (4 Bft)
23.11.2014 14:44 12,4 C 10,6 C 82 % 1015,5 hPa 0,0 l/m 2 min 0 min 139 W/m 27,2 km/h (4 Bft)
23.11.2014 14:46 12,4 C 10,6 C 82 % 1015,5 hPa 0,0 l/m 2 min 0 min 140 W/m 16,7 km/h (3 Bft)
23.11.2014 14:48 12,4 C 10,6 C 83 % 1015,6 hPa 0,0 l/m 2 min 0 min 134 W/m 12,6 km/h (3 Bft)
23.11.2014 14:50 12,4 C 10,6 C 83 % 1015,7 hPa 0,0 l/m 2 min 0 min 119 W/m 20,9 km/h (4 Bft)
23.11.2014 14:52 12,4 C 10,6 C 83 % 1015,6 hPa 0,0 l/m 2 min 0 min 112 W/m 14,6 km/h (3 Bft)
23.11.2014 14:54 12,4 C 10,6 C 83 % 1015,6 hPa 0,0 l/m 2 min 0 min 114 W/m 27,2 km/h (4 Bft)
23.11.2014 14:56 12,3 C 10,6 C 83 % 1015,7 hPa 0,0 l/m 2 min 0 min 111 W/m 25,1 km/h (4 Bft)
23.11.2014 14:58 12,3 C 10,6 C 83 % 1015,7 hPa 0,0 l/m 2 min 0 min 106 W/m 27,2 km/h (4 Bft)
23.11.2014 15:00 12,3 C 10,6 C 83 % 1015,7 hPa 0,0 l/m 0 min 0 min 94 W/m 37,7 km/h (5 Bft)
23.11.2014 15:02 12,2 C 10,6 C 83 % 1015,7 hPa 0,0 l/m 0 min 0 min 85 W/m 35,6 km/h (5 Bft)
23.11.2014 15:04 12,2 C 10,6 C 83 % 1015,6 hPa 0,0 l/m 0 min 0 min 93 W/m 29,3 km/h (5 Bft)
23.11.2014 15:06 12,2 C 10,6 C 83 % 1015,7 hPa 0,0 l/m 2 min 0 min 105 W/m 23,0 km/h (4 Bft)
23.11.2014 15:08 12,2 C 10,6 C 83 % 1015,7 hPa 0,0 l/m 0 min 0 min 80 W/m 23,0 km/h (4 Bft)
23.11.2014 15:10 12,2 C 10,0 C 83 % 1015,6 hPa 0,0 l/m 0 min 0 min 69 W/m 25,1 km/h (4 Bft)
23.11.2014 15:12 12,1 C 10,0 C 83 % 1015,4 hPa 0,0 l/m 0 min 0 min 81 W/m 14,6 km/h (3 Bft)
23.11.2014 15:14 12,1 C 10,0 C 83 % 1015,4 hPa 0,0 l/m 2 min 0 min 90 W/m 14,6 km/h (3 Bft)
23.11.2014 15:16 12,1 C 10,0 C 84 % 1015,4 hPa 0,0 l/m 2 min 0 min 89 W/m 16,7 km/h (3 Bft)
23.11.2014 15:18 12,1 C 10,0 C 84 % 1015,5 hPa 0,0 l/m 2 min 0 min 85 W/m 23,0 km/h (4 Bft)
23.11.2014 15:20 12,1 C 10,0 C 84 % 1015,4 hPa 0,0 l/m 2 min 0 min 83 W/m 18,8 km/h (3 Bft)
23.11.2014 15:22 12,0 C 10,0 C 84 % 1015,3 hPa 0,0 l/m 2 min 0 min 81 W/m 25,1 km/h (4 Bft)
23.11.2014 15:24 12,0 C 10,0 C 84 % 1015,3 hPa 0,0 l/m 2 min 0 min 77 W/m 27,2 km/h (4 Bft)
23.11.2014 15:26 12,0 C 10,0 C 84 % 1015,2 hPa 0,0 l/m 0 min 0 min 74 W/m 14,6 km/h (3 Bft)
23.11.2014 15:28 11,9 C 10,0 C 84 % 1015,1 hPa 0,0 l/m 0 min 0 min 69 W/m 27,2 km/h (4 Bft)
23.11.2014 15:30 11,9 C 10,0 C 84 % 1015,1 hPa 0,0 l/m 0 min 0 min 66 W/m 27,2 km/h (4 Bft)
23.11.2014 15:32 11,9 C 10,0 C 84 % 1015,1 hPa 0,0 l/m 0 min 0 min 62 W/m 18,8 km/h (3 Bft)
23.11.2014 15:34 11,9 C 10,0 C 84 % 1015,1 hPa 0,0 l/m 0 min 0 min 58 W/m 20,9 km/h (4 Bft)
23.11.2014 15:36 11,9 C 10,0 C 84 % 1015,0 hPa 0,0 l/m 0 min 0 min 51 W/m 23,0 km/h (4 Bft)
23.11.2014 15:38 11,9 C 10,0 C 84 % 1015,0 hPa 0,0 l/m 0 min 0 min 46 W/m 23,0 km/h (4 Bft)
23.11.2014 15:40 11,9 C 10,0 C 85 % 1015,0 hPa 0,0 l/m 0 min 0 min 43 W/m 29,3 km/h (5 Bft)
23.11.2014 15:42 11,8 C 10,0 C 85 % 1014,9 hPa 0,0 l/m 0 min 0 min 38 W/m 20,9 km/h (4 Bft)
23.11.2014 15:44 11,8 C 10,0 C 85 % 1015,0 hPa 0,0 l/m 0 min 0 min 35 W/m 18,8 km/h (3 Bft)
23.11.2014 15:46 11,8 C 10,0 C 85 % 1014,9 hPa 0,0 l/m 0 min 0 min 33 W/m 27,2 km/h (4 Bft)
23.11.2014 15:48 11,8 C 10,0 C 85 % 1014,9 hPa 0,0 l/m 0 min 0 min 31 W/m 18,8 km/h (3 Bft)
23.11.2014 15:50 11,8 C 10,0 C 85 % 1014,9 hPa 0,0 l/m 0 min 0 min 30 W/m 16,7 km/h (3 Bft)
23.11.2014 15:52 11,7 C 10,0 C 85 % 1014,8 hPa 0,0 l/m 0 min 0 min 28 W/m 18,8 km/h (3 Bft)
23.11.2014 15:54 11,7 C 10,0 C 85 % 1014,8 hPa 0,0 l/m 0 min 0 min 28 W/m 20,9 km/h (4 Bft)
23.11.2014 15:56 11,7 C 10,0 C 85 % 1014,8 hPa 0,0 l/m 0 min 0 min 26 W/m 18,8 km/h (3 Bft)
23.11.2014 15:58 11,7 C 10,0 C 85 % 1014,8 hPa 0,0 l/m 0 min 0 min 26 W/m 20,9 km/h (4 Bft)
23.11.2014 16:00 11,6 C 9,4 C 85 % 1014,6 hPa 0,0 l/m 0 min 0 min 26 W/m 18,8 km/h (3 Bft)
23.11.2014 16:02 11,6 C 9,4 C 86 % 1014,6 hPa 0,0 l/m 0 min 0 min 26 W/m 18,8 km/h (3 Bft)
23.11.2014 16:04 11,6 C 9,4 C 86 % 1014,6 hPa 0,0 l/m 0 min 0 min 26 W/m 20,9 km/h (4 Bft)
23.11.2014 16:06 11,6 C 9,4 C 86 % 1014,7 hPa 0,0 l/m 0 min 0 min 26 W/m 20,9 km/h (4 Bft)
23.11.2014 16:08 11,6 C 9,4 C 86 % 1014,7 hPa 0,0 l/m 0 min 0 min 25 W/m 20,9 km/h (4 Bft)
23.11.2014 16:10 11,6 C 9,4 C 86 % 1014,7 hPa 0,0 l/m 0 min 0 min 24 W/m 20,9 km/h (4 Bft)
23.11.2014 16:12 11,5 C 9,4 C 86 % 1014,7 hPa 0,0 l/m 0 min 0 min 22 W/m 20,9 km/h (4 Bft)
23.11.2014 16:14 11,5 C 9,4 C 86 % 1014,7 hPa 0,0 l/m 2 min 0 min 20 W/m 25,1 km/h (4 Bft)
23.11.2014 16:16 11,5 C 9,4 C 86 % 1014,7 hPa 0,0 l/m 2 min 0 min 19 W/m 16,7 km/h (3 Bft)
23.11.2014 16:18 11,4 C 9,4 C 86 % 1014,8 hPa 0,0 l/m 2 min 0 min 17 W/m 20,9 km/h (4 Bft)
23.11.2014 16:20 11,4 C 9,4 C 86 % 1014,8 hPa 0,0 l/m 2 min 0 min 15 W/m 20,9 km/h (4 Bft)
23.11.2014 16:22 11,4 C 9,4 C 86 % 1014,8 hPa 0,0 l/m 0 min 0 min 12 W/m 31,4 km/h (5 Bft)
23.11.2014 16:24 11,4 C 9,4 C 86 % 1014,7 hPa 0,0 l/m 0 min 0 min 11 W/m 16,7 km/h (3 Bft)
23.11.2014 16:26 11,4 C 9,4 C 87 % 1014,8 hPa 0,0 l/m 0 min 0 min 10 W/m 18,8 km/h (3 Bft)
23.11.2014 16:28 11,4 C 9,4 C 87 % 1014,8 hPa 0,0 l/m 0 min 0 min 7 W/m 20,9 km/h (4 Bft)
23.11.2014 16:30 11,4 C 9,4 C 87 % 1014,7 hPa 0,0 l/m 0 min 0 min 7 W/m 16,7 km/h (3 Bft)
23.11.2014 16:32 11,3 C 9,4 C 87 % 1014,7 hPa 0,0 l/m 0 min 0 min 6 W/m 23,0 km/h (4 Bft)
23.11.2014 16:34 11,3 C 9,4 C 87 % 1014,7 hPa 0,0 l/m 0 min 0 min 5 W/m 18,8 km/h (3 Bft)
23.11.2014 16:36 11,3 C 9,4 C 87 % 1014,7 hPa 0,0 l/m 0 min 0 min 5 W/m 18,8 km/h (3 Bft)
23.11.2014 16:38 11,3 C 9,4 C 87 % 1014,7 hPa 0,0 l/m 0 min 0 min 4 W/m 23,0 km/h (4 Bft)
23.11.2014 16:40 11,3 C 9,4 C 87 % 1014,8 hPa 0,0 l/m 0 min 0 min 0 W/m 16,7 km/h (3 Bft)
23.11.2014 16:42 11,2 C 9,4 C 87 % 1014,8 hPa 0,0 l/m 0 min 0 min 0 W/m 12,6 km/h (3 Bft)
23.11.2014 16:44 11,2 C 9,4 C 87 % 1014,8 hPa 0,0 l/m 0 min 0 min 0 W/m 18,8 km/h (3 Bft)
23.11.2014 16:46 11,2 C 8,9 C 87 % 1014,8 hPa 0,0 l/m 0 min 0 min 0 W/m 16,7 km/h (3 Bft)
23.11.2014 16:48 11,2 C 8,9 C 87 % 1014,8 hPa 0,0 l/m 0 min 0 min 0 W/m 18,8 km/h (3 Bft)
23.11.2014 16:50 11,2 C 8,9 C 87 % 1014,8 hPa 0,0 l/m 0 min 0 min 0 W/m 16,7 km/h (3 Bft)
23.11.2014 16:52 11,1 C 8,9 C 87 % 1014,7 hPa 0,0 l/m 0 min 0 min 0 W/m 16,7 km/h (3 Bft)
23.11.2014 16:54 11,1 C 8,9 C 87 % 1014,7 hPa 0,0 l/m 0 min 0 min 0 W/m 16,7 km/h (3 Bft)
23.11.2014 16:56 11,1 C 8,9 C 87 % 1014,6 hPa 0,0 l/m 0 min 0 min 0 W/m 12,6 km/h (3 Bft)
23.11.2014 16:58 11,1 C 8,9 C 87 % 1014,7 hPa 0,0 l/m 0 min 0 min 0 W/m 20,9 km/h (4 Bft)
23.11.2014 17:00 11,1 C 8,9 C 87 % 1014,6 hPa 0,0 l/m 0 min 0 min 0 W/m 18,8 km/h (3 Bft)
23.11.2014 17:02 11,0 C 8,9 C 88 % 1014,7 hPa 0,0 l/m 0 min 0 min 0 W/m 20,9 km/h (4 Bft)
23.11.2014 17:04 11,0 C 8,9 C 88 % 1014,7 hPa 0,0 l/m 0 min 0 min 0 W/m 18,8 km/h (3 Bft)
23.11.2014 17:06 11,0 C 8,9 C 88 % 1014,6 hPa 0,0 l/m 0 min 0 min 0 W/m 18,8 km/h (3 Bft)
23.11.2014 17:08 11,0 C 8,9 C 88 % 1014,7 hPa 0,0 l/m 0 min 0 min 0 W/m 18,8 km/h (3 Bft)
23.11.2014 17:10 10,9 C 8,9 C 88 % 1014,6 hPa 0,0 l/m 0 min 0 min 0 W/m 18,8 km/h (3 Bft)
23.11.2014 17:12 10,9 C 8,9 C 88 % 1014,6 hPa 0,0 l/m 0 min 0 min 0 W/m 20,9 km/h (4 Bft)
23.11.2014 17:14 10,9 C 8,9 C 88 % 1014,7 hPa 0,0 l/m 0 min 0 min 0 W/m 20,9 km/h (4 Bft)
23.11.2014 17:16 10,9 C 8,9 C 88 % 1014,6 hPa 0,0 l/m 0 min 0 min 0 W/m 16,7 km/h (3 Bft)
23.11.2014 17:18 10,9 C 8,9 C 88 % 1014,7 hPa 0,0 l/m 0 min 0 min 0 W/m 18,8 km/h (3 Bft)
23.11.2014 17:20 10,9 C 8,9 C 88 % 1014,6 hPa 0,0 l/m 0 min 0 min 0 W/m 18,8 km/h (3 Bft)
23.11.2014 17:22 10,9 C 8,9 C 88 % 1014,6 hPa 0,0 l/m 0 min 0 min 0 W/m 16,7 km/h (3 Bft)
23.11.2014 17:24 10,9 C 8,9 C 88 % 1014,6 hPa 0,0 l/m 0 min 0 min 0 W/m 18,8 km/h (3 Bft)
23.11.2014 17:26 10,9 C 8,9 C 88 % 1014,6 hPa 0,0 l/m 0 min 0 min 0 W/m 23,0 km/h (4 Bft)
23.11.2014 17:28 10,9 C 9,4 C 88 % 1014,6 hPa 0,0 l/m 0 min 0 min 0 W/m 23,0 km/h (4 Bft)
23.11.2014 17:30 10,9 C 8,9 C 88 % 1014,6 hPa 0,0 l/m 0 min 0 min 0 W/m 16,7 km/h (3 Bft)
23.11.2014 17:32 10,9 C 8,9 C 88 % 1014,6 hPa 0,0 l/m 0 min 0 min 0 W/m 16,7 km/h (3 Bft)
23.11.2014 17:34 10,8 C 8,9 C 88 % 1014,6 hPa 0,0 l/m 0 min 0 min 0 W/m 18,8 km/h (3 Bft)
23.11.2014 17:36 10,8 C 8,9 C 88 % 1014,6 hPa 0,0 l/m 0 min 0 min 0 W/m 16,7 km/h (3 Bft)
23.11.2014 17:38 10,8 C 8,9 C 88 % 1014,6 hPa 0,0 l/m 0 min 0 min 0 W/m 18,8 km/h (3 Bft)
23.11.2014 17:40 10,8 C 8,9 C 88 % 1014,5 hPa 0,0 l/m 0 min 0 min 0 W/m 20,9 km/h (4 Bft)
23.11.2014 17:42 10,8 C 8,9 C 88 % 1014,4 hPa 0,0 l/m 0 min 0 min 0 W/m 25,1 km/h (4 Bft)
23.11.2014 17:44 10,8 C 8,9 C 88 % 1014,6 hPa 0,0 l/m 0 min 0 min 0 W/m 20,9 km/h (4 Bft)
23.11.2014 17:46 10,8 C 8,9 C 88 % 1014,7 hPa 0,0 l/m 0 min 0 min 0 W/m 14,6 km/h (3 Bft)
23.11.2014 17:48 10,8 C 8,9 C 88 % 1014,6 hPa 0,0 l/m 0 min 0 min 0 W/m 16,7 km/h (3 Bft)
23.11.2014 17:50 10,8 C 8,9 C 88 % 1014,5 hPa 0,0 l/m 0 min 0 min 0 W/m 18,8 km/h (3 Bft)
23.11.2014 17:52 10,8 C 8,9 C 88 % 1014,5 hPa 0,0 l/m 0 min 0 min 0 W/m 20,9 km/h (4 Bft)
23.11.2014 17:54 10,8 C 8,9 C 88 % 1014,5 hPa 0,0 l/m 0 min 0 min 0 W/m 16,7 km/h (3 Bft)
23.11.2014 17:56 10,8 C 8,9 C 88 % 1014,6 hPa 0,0 l/m 0 min 0 min 0 W/m 27,2 km/h (4 Bft)
23.11.2014 17:58 10,8 C 8,9 C 88 % 1014,7 hPa 0,0 l/m 0 min 0 min 0 W/m 20,9 km/h (4 Bft)
23.11.2014 18:00 10,8 C 8,9 C 88 % 1014,7 hPa 0,0 l/m 0 min 0 min 0 W/m 20,9 km/h (4 Bft)
23.11.2014 18:02 10,7 C 8,9 C 88 % 1014,7 hPa 0,0 l/m 0 min 0 min 0 W/m 16,7 km/h (3 Bft)
23.11.2014 18:05 10,7 C 8,9 C 88 % 1014,8 hPa 0,0 l/m 0 min 0 min 0 W/m 20,9 km/h (4 Bft)
23.11.2014 18:06 10,7 C 8,9 C 88 % 1014,9 hPa 0,0 l/m 0 min 0 min 0 W/m 20,9 km/h (4 Bft)
23.11.2014 18:08 10,7 C 8,9 C 88 % 1014,8 hPa 0,0 l/m 0 min 0 min 0 W/m 31,4 km/h (5 Bft)
23.11.2014 18:10 10,7 C 9,4 C 88 % 1014,8 hPa 0,0 l/m 0 min 0 min 0 W/m 23,0 km/h (4 Bft)
23.11.2014 18:12 10,7 C 9,4 C 88 % 1014,8 hPa 0,0 l/m 0 min 0 min 0 W/m 23,0 km/h (4 Bft)
23.11.2014 18:14 10,7 C 9,4 C 88 % 1014,7 hPa 0,0 l/m 0 min 0 min 0 W/m 25,1 km/h (4 Bft)
23.11.2014 18:16 10,7 C 9,4 C 88 % 1014,7 hPa 0,0 l/m 0 min 0 min 0 W/m 27,2 km/h (4 Bft)
23.11.2014 18:18 10,7 C 9,4 C 88 % 1014,7 hPa 0,0 l/m 0 min 0 min 0 W/m 16,7 km/h (3 Bft)
23.11.2014 18:20 10,7 C 9,4 C 88 % 1014,7 hPa 0,0 l/m 0 min 0 min 0 W/m 23,0 km/h (4 Bft)
23.11.2014 18:22 10,7 C 9,4 C 88 % 1014,7 hPa 0,0 l/m 0 min 0 min 0 W/m 25,1 km/h (4 Bft)
23.11.2014 18:24 10,7 C 9,4 C 88 % 1014,7 hPa 0,0 l/m 0 min 0 min 0 W/m 31,4 km/h (5 Bft)
23.11.2014 18:26 10,7 C 9,4 C 88 % 1014,7 hPa 0,0 l/m 0 min 0 min 0 W/m 23,0 km/h (4 Bft)
23.11.2014 18:28 10,7 C 9,4 C 88 % 1014,7 hPa 0,0 l/m 0 min 0 min 0 W/m 29,3 km/h (5 Bft)
23.11.2014 18:30 10,7 C 9,4 C 88 % 1014,6 hPa 0,0 l/m 0 min 0 min 0 W/m 23,0 km/h (4 Bft)
23.11.2014 18:32 10,7 C 9,4 C 88 % 1014,6 hPa 0,0 l/m 0 min 0 min 0 W/m 27,2 km/h (4 Bft)
23.11.2014 18:34 10,7 C 9,4 C 88 % 1014,6 hPa 0,0 l/m 0 min 0 min 0 W/m 31,4 km/h (5 Bft)
23.11.2014 18:36 10,7 C 9,4 C 87 % 1014,7 hPa 0,0 l/m 0 min 0 min 0 W/m 18,8 km/h (3 Bft)
23.11.2014 18:38 10,7 C 9,4 C 87 % 1014,6 hPa 0,0 l/m 0 min 0 min 0 W/m 23,0 km/h (4 Bft)
23.11.2014 18:40 10,7 C 9,4 C 87 % 1014,7 hPa 0,0 l/m 0 min 0 min 0 W/m 25,1 km/h (4 Bft)
23.11.2014 18:42 10,7 C 9,4 C 87 % 1014,6 hPa 0,0 l/m 0 min 0 min 0 W/m 27,2 km/h (4 Bft)
23.11.2014 18:44 10,7 C 9,4 C 87 % 1014,7 hPa 0,0 l/m 0 min 0 min 0 W/m 20,9 km/h (4 Bft)
23.11.2014 18:46 10,7 C 9,4 C 87 % 1014,6 hPa 0,0 l/m 0 min 0 min 0 W/m 23,0 km/h (4 Bft)
23.11.2014 18:48 10,7 C 9,4 C 87 % 1014,5 hPa 0,0 l/m 0 min 0 min 0 W/m 27,2 km/h (4 Bft)
23.11.2014 18:50 10,7 C 9,4 C 87 % 1014,5 hPa 0,0 l/m 0 min 0 min 0 W/m 27,2 km/h (4 Bft)
23.11.2014 18:52 10,7 C 9,4 C 87 % 1014,6 hPa 0,0 l/m 0 min 0 min 0 W/m 20,9 km/h (4 Bft)
23.11.2014 18:54 10,7 C 8,9 C 87 % 1014,6 hPa 0,0 l/m 0 min 0 min 0 W/m 20,9 km/h (4 Bft)
23.11.2014 18:56 10,7 C 8,9 C 87 % 1014,7 hPa 0,0 l/m 0 min 0 min 0 W/m 14,6 km/h (3 Bft)
23.11.2014 18:58 10,7 C 8,9 C 87 % 1014,7 hPa 0,0 l/m 0 min 0 min 0 W/m 27,2 km/h (4 Bft)
23.11.2014 19:00 10,7 C 8,9 C 87 % 1014,7 hPa 0,0 l/m 0 min 0 min 0 W/m 20,9 km/h (4 Bft)
23.11.2014 19:02 10,7 C 8,9 C 87 % 1014,7 hPa 0,0 l/m 0 min 0 min 0 W/m 31,4 km/h (5 Bft)
23.11.2014 19:04 10,6 C 8,9 C 87 % 1014,7 hPa 0,0 l/m 0 min 0 min 0 W/m 25,1 km/h (4 Bft)
23.11.2014 19:06 10,6 C 8,9 C 87 % 1014,6 hPa 0,0 l/m 0 min 0 min 0 W/m 23,0 km/h (4 Bft)
23.11.2014 19:08 10,6 C 8,9 C 87 % 1014,5 hPa 0,0 l/m 0 min 0 min 0 W/m 20,9 km/h (4 Bft)
23.11.2014 19:10 10,6 C 8,9 C 87 % 1014,5 hPa 0,0 l/m 0 min 0 min 0 W/m 25,1 km/h (4 Bft)
23.11.2014 19:12 10,6 C 8,9 C 87 % 1014,4 hPa 0,0 l/m 0 min 0 min 0 W/m 14,6 km/h (3 Bft)
23.11.2014 19:14 10,6 C 8,9 C 87 % 1014,4 hPa 0,0 l/m 0 min 0 min 0 W/m 23,0 km/h (4 Bft)
23.11.2014 19:16 10,5 C 8,9 C 87 % 1014,6 hPa 0,0 l/m 0 min 0 min 0 W/m 23,0 km/h (4 Bft)
23.11.2014 19:18 10,5 C 8,9 C 87 % 1014,5 hPa 0,0 l/m 0 min 0 min 0 W/m 23,0 km/h (4 Bft)
23.11.2014 19:20 10,4 C 8,9 C 87 % 1014,5 hPa 0,0 l/m 0 min 0 min 0 W/m 27,2 km/h (4 Bft)
23.11.2014 19:22 10,4 C 8,9 C 87 % 1014,6 hPa 0,0 l/m 0 min 0 min 0 W/m 23,0 km/h (4 Bft)
23.11.2014 19:24 10,4 C 8,9 C 87 % 1014,5 hPa 0,0 l/m 0 min 0 min 0 W/m 25,1 km/h (4 Bft)
23.11.2014 19:26 10,4 C 8,9 C 87 % 1014,6 hPa 0,0 l/m 0 min 0 min 0 W/m 18,8 km/h (3 Bft)
23.11.2014 19:28 10,4 C 8,3 C 87 % 1014,6 hPa 0,0 l/m 0 min 0 min 0 W/m 18,8 km/h (3 Bft)
23.11.2014 19:30 10,3 C 8,3 C 87 % 1014,6 hPa 0,0 l/m 0 min 0 min 0 W/m 23,0 km/h (4 Bft)
23.11.2014 19:32 10,3 C 8,3 C 87 % 1014,5 hPa 0,0 l/m 0 min 0 min 0 W/m 18,8 km/h (3 Bft)
23.11.2014 19:34 10,3 C 8,3 C 88 % 1014,6 hPa 0,0 l/m 0 min 0 min 0 W/m 16,7 km/h (3 Bft)
23.11.2014 19:36 10,3 C 8,3 C 88 % 1014,5 hPa 0,0 l/m 0 min 0 min 0 W/m 25,1 km/h (4 Bft)
23.11.2014 19:38 10,2 C 8,3 C 88 % 1014,6 hPa 0,0 l/m 0 min 0 min 0 W/m 27,2 km/h (4 Bft)
23.11.2014 19:40 10,2 C 8,3 C 88 % 1014,5 hPa 0,0 l/m 0 min 0 min 0 W/m 20,9 km/h (4 Bft)
23.11.2014 19:42 10,2 C 8,3 C 88 % 1014,5 hPa 0,0 l/m 0 min 0 min 0 W/m 20,9 km/h (4 Bft)
23.11.2014 19:44 10,1 C 8,3 C 88 % 1014,5 hPa 0,0 l/m 0 min 0 min 0 W/m 20,9 km/h (4 Bft)
23.11.2014 19:46 10,1 C 8,3 C 88 % 1014,5 hPa 0,0 l/m 0 min 0 min 0 W/m 18,8 km/h (3 Bft)
23.11.2014 19:48 10,1 C 8,3 C 88 % 1014,5 hPa 0,0 l/m 0 min 0 min 0 W/m 18,8 km/h (3 Bft)
23.11.2014 19:50 10,1 C 8,3 C 88 % 1014,4 hPa 0,0 l/m 0 min 0 min 0 W/m 18,8 km/h (3 Bft)
23.11.2014 19:52 10,0 C 8,3 C 88 % 1014,4 hPa 0,0 l/m 0 min 0 min 0 W/m 20,9 km/h (4 Bft)
23.11.2014 19:54 10,0 C 8,3 C 88 % 1014,5 hPa 0,0 l/m 0 min 0 min 0 W/m 20,9 km/h (4 Bft)
23.11.2014 19:56 9,9 C 8,3 C 88 % 1014,4 hPa 0,0 l/m 0 min 0 min 0 W/m 18,8 km/h (3 Bft)
23.11.2014 19:58 9,9 C 8,3 C 88 % 1014,4 hPa 0,0 l/m 0 min 0 min 0 W/m 25,1 km/h (4 Bft)
23.11.2014 20:00 9,9 C 8,3 C 88 % 1014,4 hPa 0,0 l/m 0 min 0 min 0 W/m 29,3 km/h (5 Bft)
23.11.2014 20:02 9,9 C 8,3 C 88 % 1014,4 hPa 0,0 l/m 0 min 0 min 0 W/m 27,2 km/h (4 Bft)
23.11.2014 20:04 9,9 C 8,3 C 88 % 1014,5 hPa 0,0 l/m 0 min 0 min 0 W/m 20,9 km/h (4 Bft)
23.11.2014 20:06 9,8 C 8,3 C 88 % 1014,5 hPa 0,0 l/m 0 min 0 min 0 W/m 23,0 km/h (4 Bft)
23.11.2014 20:08 9,8 C 8,3 C 88 % 1014,6 hPa 0,0 l/m 0 min 0 min 0 W/m 23,0 km/h (4 Bft)
23.11.2014 20:10 9,8 C 8,3 C 88 % 1014,6 hPa 0,0 l/m 0 min 0 min 0 W/m 23,0 km/h (4 Bft)
23.11.2014 20:12 9,8 C 8,3 C 88 % 1014,6 hPa 0,0 l/m 0 min 0 min 0 W/m 18,8 km/h (3 Bft)
23.11.2014 20:14 9,8 C 8,3 C 88 % 1014,6 hPa 0,0 l/m 0 min 0 min 0 W/m 18,8 km/h (3 Bft)
23.11.2014 20:16 9,8 C 8,3 C 89 % 1014,6 hPa 0,0 l/m 0 min 0 min 0 W/m 25,1 km/h (4 Bft)
23.11.2014 20:18 9,8 C 8,3 C 89 % 1014,7 hPa 0,0 l/m 0 min 0 min 0 W/m 18,8 km/h (3 Bft)
23.11.2014 20:20 9,8 C 8,3 C 89 % 1014,7 hPa 0,0 l/m 0 min 0 min 0 W/m 23,0 km/h (4 Bft)
23.11.2014 20:22 9,8 C 8,3 C 89 % 1014,7 hPa 0,0 l/m 0 min 0 min 0 W/m 25,1 km/h (4 Bft)
23.11.2014 20:24 9,8 C 8,3 C 89 % 1014,7 hPa 0,0 l/m 0 min 0 min 0 W/m 20,9 km/h (4 Bft)
23.11.2014 20:26 9,8 C 8,3 C 89 % 1014,6 hPa 0,0 l/m 0 min 0 min 0 W/m 25,1 km/h (4 Bft)
23.11.2014 20:28 9,8 C 8,3 C 89 % 1014,6 hPa 0,0 l/m 0 min 0 min 0 W/m 20,9 km/h (4 Bft)
23.11.2014 20:30 9,8 C 8,3 C 89 % 1014,5 hPa 0,0 l/m 0 min 0 min 0 W/m 20,9 km/h (4 Bft)
23.11.2014 20:32 9,8 C 8,3 C 89 % 1014,6 hPa 0,0 l/m 0 min 0 min 0 W/m 20,9 km/h (4 Bft)
23.11.2014 20:34 9,8 C 8,3 C 89 % 1014,7 hPa 0,0 l/m 0 min 0 min 0 W/m 20,9 km/h (4 Bft)
23.11.2014 20:36 9,8 C 8,3 C 89 % 1014,7 hPa 0,0 l/m 0 min 0 min 0 W/m 18,8 km/h (3 Bft)
23.11.2014 20:38 9,8 C 8,3 C 89 % 1014,7 hPa 0,0 l/m 0 min 0 min 0 W/m 23,0 km/h (4 Bft)
23.11.2014 20:40 9,8 C 8,3 C 89 % 1014,6 hPa 0,0 l/m 0 min 0 min 0 W/m 20,9 km/h (4 Bft)
23.11.2014 20:42 9,8 C 8,3 C 89 % 1014,7 hPa 0,0 l/m 0 min 0 min 0 W/m 23,0 km/h (4 Bft)
23.11.2014 20:44 9,8 C 8,3 C 88 % 1014,6 hPa 0,0 l/m 0 min 0 min 0 W/m 25,1 km/h (4 Bft)
23.11.2014 20:46 9,8 C 8,3 C 88 % 1014,7 hPa 0,0 l/m 0 min 0 min 0 W/m 27,2 km/h (4 Bft)
23.11.2014 20:48 9,8 C 8,3 C 88 % 1014,6 hPa 0,0 l/m 0 min 0 min 0 W/m 20,9 km/h (4 Bft)
23.11.2014 20:50 9,8 C 8,3 C 88 % 1014,6 hPa 0,0 l/m 0 min 0 min 0 W/m 20,9 km/h (4 Bft)
23.11.2014 20:52 9,8 C 8,3 C 88 % 1014,5 hPa 0,0 l/m 0 min 0 min 0 W/m 25,1 km/h (4 Bft)
23.11.2014 20:54 9,8 C 8,3 C 88 % 1014,5 hPa 0,0 l/m 0 min 0 min 0 W/m 20,9 km/h (4 Bft)
23.11.2014 20:56 9,8 C 8,3 C 88 % 1014,6 hPa 0,0 l/m 0 min 0 min 0 W/m 33,5 km/h (5 Bft)
23.11.2014 20:58 9,8 C 8,3 C 88 % 1014,6 hPa 0,0 l/m 0 min 0 min 0 W/m 20,9 km/h (4 Bft)
23.11.2014 21:00 9,8 C 8,3 C 88 % 1014,6 hPa 0,0 l/m 0 min 0 min 0 W/m 25,1 km/h (4 Bft)
23.11.2014 21:02 9,9 C 8,3 C 88 % 1014,6 hPa 0,0 l/m 0 min 0 min 0 W/m 16,7 km/h (3 Bft)
23.11.2014 21:04 9,8 C 8,3 C 88 % 1014,6 hPa 0,0 l/m 0 min 0 min 0 W/m 20,9 km/h (4 Bft)
23.11.2014 21:06 9,8 C 8,3 C 88 % 1014,6 hPa 0,0 l/m 0 min 0 min 0 W/m 20,9 km/h (4 Bft)
23.11.2014 21:08 9,8 C 8,3 C 88 % 1014,6 hPa 0,0 l/m 0 min 0 min 0 W/m 18,8 km/h (3 Bft)
23.11.2014 21:10 9,8 C 8,3 C 88 % 1014,6 hPa 0,0 l/m 0 min 0 min 0 W/m 20,9 km/h (4 Bft)
23.11.2014 21:12 9,8 C 8,3 C 88 % 1014,6 hPa 0,0 l/m 0 min 0 min 0 W/m 23,0 km/h (4 Bft)
23.11.2014 21:14 9,9 C 8,3 C 88 % 1014,6 hPa 0,0 l/m 0 min 0 min 0 W/m 20,9 km/h (4 Bft)
23.11.2014 21:16 9,8 C 8,3 C 88 % 1014,7 hPa 0,0 l/m 0 min 0 min 0 W/m 20,9 km/h (4 Bft)
23.11.2014 21:18 9,8 C 8,3 C 88 % 1014,7 hPa 0,0 l/m 0 min 0 min 0 W/m 25,1 km/h (4 Bft)
23.11.2014 21:20 9,8 C 8,3 C 88 % 1014,7 hPa 0,0 l/m 0 min 0 min 0 W/m 20,9 km/h (4 Bft)
23.11.2014 21:22 9,8 C 8,3 C 88 % 1014,7 hPa 0,0 l/m 0 min 0 min 0 W/m 16,7 km/h (3 Bft)
23.11.2014 21:24 9,8 C 8,3 C 88 % 1014,8 hPa 0,0 l/m 0 min 0 min 0 W/m 20,9 km/h (4 Bft)
23.11.2014 21:26 9,8 C 8,3 C 88 % 1014,7 hPa 0,0 l/m 0 min 0 min 0 W/m 20,9 km/h (4 Bft)
23.11.2014 21:28 9,8 C 8,3 C 88 % 1014,8 hPa 0,0 l/m 0 min 0 min 0 W/m 25,1 km/h (4 Bft)
23.11.2014 21:30 9,8 C 8,3 C 88 % 1014,8 hPa 0,0 l/m 0 min 0 min 0 W/m 18,8 km/h (3 Bft)
23.11.2014 21:32 9,8 C 8,3 C 88 % 1014,8 hPa 0,0 l/m 0 min 0 min 0 W/m 16,7 km/h (3 Bft)
23.11.2014 21:34 9,8 C 8,3 C 88 % 1014,7 hPa 0,0 l/m 0 min 0 min 0 W/m 18,8 km/h (3 Bft)
23.11.2014 21:36 9,8 C 8,3 C 88 % 1014,7 hPa 0,0 l/m 0 min 0 min 0 W/m 16,7 km/h (3 Bft)
23.11.2014 21:38 9,8 C 8,3 C 88 % 1014,8 hPa 0,0 l/m 0 min 0 min 0 W/m 20,9 km/h (4 Bft)
23.11.2014 21:40 9,7 C 8,3 C 88 % 1014,8 hPa 0,0 l/m 0 min 0 min 0 W/m 23,0 km/h (4 Bft)
23.11.2014 21:42 9,7 C 8,3 C 88 % 1014,8 hPa 0,0 l/m 0 min 0 min 0 W/m 23,0 km/h (4 Bft)
23.11.2014 21:44 9,7 C 8,3 C 88 % 1014,9 hPa 0,0 l/m 0 min 0 min 0 W/m 25,1 km/h (4 Bft)
23.11.2014 21:46 9,7 C 8,3 C 88 % 1014,9 hPa 0,0 l/m 0 min 0 min 0 W/m 25,1 km/h (4 Bft)
23.11.2014 21:48 9,7 C 8,3 C 88 % 1014,9 hPa 0,0 l/m 0 min 0 min 0 W/m 23,0 km/h (4 Bft)
23.11.2014 21:50 9,7 C 8,3 C 88 % 1014,9 hPa 0,0 l/m 0 min 0 min 0 W/m 20,9 km/h (4 Bft)
23.11.2014 21:52 9,7 C 8,3 C 88 % 1014,9 hPa 0,0 l/m 0 min 0 min 0 W/m 20,9 km/h (4 Bft)
23.11.2014 21:54 9,7 C 8,3 C 88 % 1014,9 hPa 0,0 l/m 0 min 0 min 0 W/m 18,8 km/h (3 Bft)
23.11.2014 21:56 9,7 C 8,3 C 88 % 1014,9 hPa 0,0 l/m 0 min 0 min 0 W/m 20,9 km/h (4 Bft)
23.11.2014 21:58 9,7 C 8,3 C 88 % 1014,9 hPa 0,0 l/m 0 min 0 min 0 W/m 18,8 km/h (3 Bft)
23.11.2014 22:00 9,7 C 8,3 C 88 % 1015,0 hPa 0,0 l/m 0 min 0 min 0 W/m 20,9 km/h (4 Bft)
23.11.2014 22:02 9,7 C 8,3 C 88 % 1015,0 hPa 0,0 l/m 0 min 0 min 0 W/m 16,7 km/h (3 Bft)
23.11.2014 22:04 9,7 C 8,3 C 88 % 1015,1 hPa 0,0 l/m 0 min 0 min 0 W/m 14,6 km/h (3 Bft)
23.11.2014 22:06 9,7 C 8,3 C 89 % 1015,1 hPa 0,0 l/m 0 min 0 min 0 W/m 18,8 km/h (3 Bft)
23.11.2014 22:08 9,7 C 8,3 C 89 % 1015,1 hPa 0,0 l/m 0 min 0 min 0 W/m 18,8 km/h (3 Bft)
23.11.2014 22:10 9,7 C 8,3 C 89 % 1015,1 hPa 0,0 l/m 0 min 0 min 0 W/m 14,6 km/h (3 Bft)
23.11.2014 22:12 9,7 C 8,3 C 89 % 1015,1 hPa 0,0 l/m 0 min 0 min 0 W/m 16,7 km/h (3 Bft)
23.11.2014 22:14 9,7 C 8,3 C 89 % 1015,1 hPa 0,0 l/m 0 min 0 min 0 W/m 16,7 km/h (3 Bft)
23.11.2014 22:16 9,7 C 8,3 C 89 % 1015,1 hPa 0,0 l/m 0 min 0 min 0 W/m 12,6 km/h (3 Bft)
23.11.2014 22:18 9,7 C 8,3 C 89 % 1015,1 hPa 0,0 l/m 0 min 0 min 0 W/m 16,7 km/h (3 Bft)
23.11.2014 22:20 9,7 C 8,3 C 89 % 1015,0 hPa 0,0 l/m 0 min 0 min 0 W/m 18,8 km/h (3 Bft)
23.11.2014 22:22 9,7 C 8,3 C 89 % 1015,1 hPa 0,0 l/m 0 min 0 min 0 W/m 16,7 km/h (3 Bft)
23.11.2014 22:24 9,7 C 8,3 C 89 % 1015,1 hPa 0,0 l/m 0 min 0 min 0 W/m 14,6 km/h (3 Bft)
23.11.2014 22:26 9,7 C 8,3 C 89 % 1015,1 hPa 0,0 l/m 0 min 0 min 0 W/m 14,6 km/h (3 Bft)
23.11.2014 22:28 9,7 C 8,3 C 89 % 1015,2 hPa 0,0 l/m 0 min 0 min 0 W/m 14,6 km/h (3 Bft)
23.11.2014 22:30 9,7 C 8,3 C 89 % 1015,2 hPa 0,0 l/m 0 min 0 min 0 W/m 10,5 km/h (2 Bft)
23.11.2014 22:32 9,7 C 8,3 C 89 % 1015,3 hPa 0,0 l/m 0 min 0 min 0 W/m 18,8 km/h (3 Bft)
23.11.2014 22:34 9,7 C 8,3 C 89 % 1015,2 hPa 0,0 l/m 0 min 0 min 0 W/m 14,6 km/h (3 Bft)
23.11.2014 22:36 9,7 C 8,3 C 89 % 1015,3 hPa 0,0 l/m 0 min 0 min 0 W/m 14,6 km/h (3 Bft)
23.11.2014 22:38 9,7 C 8,3 C 89 % 1015,3 hPa 0,0 l/m 0 min 0 min 0 W/m 18,8 km/h (3 Bft)
23.11.2014 22:40 9,7 C 8,3 C 89 % 1015,2 hPa 0,0 l/m 0 min 0 min 0 W/m 18,8 km/h (3 Bft)
23.11.2014 22:42 9,7 C 8,3 C 89 % 1015,3 hPa 0,0 l/m 0 min 0 min 0 W/m 14,6 km/h (3 Bft)
23.11.2014 22:44 9,7 C 8,3 C 89 % 1015,2 hPa 0,0 l/m 0 min 0 min 0 W/m 14,6 km/h (3 Bft)
23.11.2014 22:46 9,7 C 8,3 C 89 % 1015,2 hPa 0,0 l/m 0 min 0 min 0 W/m 14,6 km/h (3 Bft)
23.11.2014 22:48 9,7 C 8,3 C 89 % 1015,3 hPa 0,0 l/m 0 min 0 min 0 W/m 12,6 km/h (3 Bft)
23.11.2014 22:50 9,7 C 8,3 C 89 % 1015,3 hPa 0,0 l/m 0 min 0 min 0 W/m 8,4 km/h (2 Bft)
23.11.2014 22:52 9,7 C 8,3 C 89 % 1015,3 hPa 0,0 l/m 0 min 0 min 0 W/m 12,6 km/h (3 Bft)
23.11.2014 22:54 9,7 C 8,3 C 89 % 1015,2 hPa 0,0 l/m 0 min 0 min 0 W/m 10,5 km/h (2 Bft)
23.11.2014 22:56 9,6 C 8,3 C 89 % 1015,2 hPa 0,0 l/m 0 min 0 min 0 W/m 12,6 km/h (3 Bft)
23.11.2014 22:58 9,6 C 8,3 C 89 % 1015,2 hPa 0,0 l/m 0 min 0 min 0 W/m 14,6 km/h (3 Bft)
23.11.2014 23:00 9,6 C 8,3 C 89 % 1015,3 hPa 0,0 l/m 0 min 0 min 0 W/m 12,6 km/h (3 Bft)
23.11.2014 23:02 9,6 C 8,3 C 89 % 1015,4 hPa 0,0 l/m 0 min 0 min 0 W/m 12,6 km/h (3 Bft)
23.11.2014 23:04 9,6 C 7,8 C 89 % 1015,4 hPa 0,0 l/m 0 min 0 min 0 W/m 12,6 km/h (3 Bft)
23.11.2014 23:06 9,6 C 7,8 C 89 % 1015,4 hPa 0,0 l/m 0 min 0 min 0 W/m 12,6 km/h (3 Bft)
23.11.2014 23:08 9,6 C 7,8 C 89 % 1015,5 hPa 0,0 l/m 0 min 0 min 0 W/m 14,6 km/h (3 Bft)
23.11.2014 23:10 9,6 C 8,3 C 89 % 1015,6 hPa 0,0 l/m 0 min 0 min 0 W/m 12,6 km/h (3 Bft)
23.11.2014 23:12 9,6 C 8,3 C 89 % 1015,6 hPa 0,0 l/m 0 min 0 min 0 W/m 10,5 km/h (2 Bft)
23.11.2014 23:14 9,6 C 8,3 C 89 % 1015,5 hPa 0,0 l/m 0 min 0 min 0 W/m 12,6 km/h (3 Bft)
23.11.2014 23:16 9,6 C 8,3 C 89 % 1015,6 hPa 0,0 l/m 0 min 0 min 0 W/m 10,5 km/h (2 Bft)
23.11.2014 23:18 9,6 C 8,3 C 89 % 1015,5 hPa 0,0 l/m 0 min 0 min 0 W/m 10,5 km/h (2 Bft)
23.11.2014 23:20 9,6 C 8,3 C 89 % 1015,5 hPa 0,0 l/m 0 min 0 min 0 W/m 10,5 km/h (2 Bft)
23.11.2014 23:22 9,6 C 8,3 C 89 % 1015,5 hPa 0,0 l/m 0 min 0 min 0 W/m 10,5 km/h (2 Bft)
23.11.2014 23:24 9,6 C 8,3 C 90 % 1015,5 hPa 0,0 l/m 0 min 0 min 0 W/m 10,5 km/h (2 Bft)
23.11.2014 23:26 9,6 C 8,3 C 90 % 1015,5 hPa 0,0 l/m 0 min 0 min 0 W/m 10,5 km/h (2 Bft)
23.11.2014 23:28 9,6 C 8,3 C 90 % 1015,5 hPa 0,0 l/m 0 min 0 min 0 W/m 14,6 km/h (3 Bft)
23.11.2014 23:30 9,6 C 8,3 C 90 % 1015,5 hPa 0,0 l/m 0 min 0 min 0 W/m 10,5 km/h (2 Bft)
23.11.2014 23:32 9,6 C 8,3 C 90 % 1015,5 hPa 0,0 l/m 0 min 0 min 0 W/m 10,5 km/h (2 Bft)
23.11.2014 23:34 9,6 C 8,3 C 90 % 1015,4 hPa 0,0 l/m 0 min 0 min 0 W/m 12,6 km/h (3 Bft)
23.11.2014 23:36 9,6 C 8,3 C 90 % 1015,5 hPa 0,0 l/m 0 min 0 min 0 W/m 14,6 km/h (3 Bft)
23.11.2014 23:38 9,6 C 8,3 C 90 % 1015,5 hPa 0,0 l/m 0 min 0 min 0 W/m 10,5 km/h (2 Bft)
23.11.2014 23:40 9,6 C 8,3 C 90 % 1015,4 hPa 0,0 l/m 0 min 0 min 0 W/m 16,7 km/h (3 Bft)
23.11.2014 23:42 9,6 C 8,3 C 90 % 1015,4 hPa 0,0 l/m 0 min 0 min 0 W/m 8,4 km/h (2 Bft)
23.11.2014 23:44 9,6 C 8,3 C 90 % 1015,4 hPa 0,0 l/m 0 min 0 min 0 W/m 10,5 km/h (2 Bft)
23.11.2014 23:46 9,6 C 8,3 C 90 % 1015,5 hPa 0,0 l/m 0 min 0 min 0 W/m 10,5 km/h (2 Bft)
23.11.2014 23:48 9,6 C 8,3 C 90 % 1015,4 hPa 0,0 l/m 0 min 0 min 0 W/m 12,6 km/h (3 Bft)
23.11.2014 23:50 9,6 C 8,3 C 90 % 1015,4 hPa 0,0 l/m 0 min 0 min 0 W/m 10,5 km/h (2 Bft)
23.11.2014 23:52 9,6 C 8,3 C 90 % 1015,4 hPa 0,0 l/m 0 min 0 min 0 W/m 10,5 km/h (2 Bft)
23.11.2014 23:54 9,6 C 8,3 C 90 % 1015,4 hPa 0,0 l/m 0 min 0 min 0 W/m 10,5 km/h (2 Bft)
23.11.2014 23:56 9,6 C 8,3 C 90 % 1015,4 hPa 0,0 l/m 0 min 0 min 0 W/m 12,6 km/h (3 Bft)
23.11.2014 23:58 9,6 C 8,3 C 90 % 1015,4 hPa 0,0 l/m 0 min 0 min 0 W/m 12,6 km/h (3 Bft)
_ Min-Zeit 08:14 07:32 13:20 17:42 - - - - 22:50
Minimum _ 7,7 C 6,1 C 81 % 1014,4 hPa - - - - 8,4 km/h (2 Bft)
_ Max-Zeit 13:22 13:08 03:10 00:54 00:00 08:18 00:00 11:48 15:00
Maximum _ 12,9 C 11,1 C 94 % 1018,7 hPa 0,0 l/m 2 min 0 min 298 W/m 37,7 km/h
SO (5 Bft)
Durchschnitt _ 9,7 C 8,2 C 89 % 1016,7 hPa #0,0 l/m #6:30 h #0 min. 139 W/m 19,0 km/h (3 Bft)
© 2015 W. Hausmann